<?xml version="1.0" encoding="UTF-8" standalone="no" ?>
<gpx xmlns="http://www.topografix.com/GPX/1/1" xmlns:xsi="http://www.w3.org/2001/XMLSchema-instance" xsi:schemaLocation="http://www.topografix.com/GPX/1/1 http://www.topografix.com/GPX/1/1/gpx.xsd" version="1.1" creator="VisuGPX - https://www.visugpx.com">
  <metadata>
    <name>Notre Dame des Anges</name>
    <desc><![CDATA[boucle de 30 km au départ de Collobrières (cotation VTOPO V4 )]]></desc>
  </metadata>
  <trk>
    <name><![CDATA[2012-03-04 Notre-Dame des Anges]]></name>
    <trkseg>
      <trkpt lat="43.23721" lon="6.3024">
        <ele>147.94921875</ele>
        <time>2012-03-04T08:35:42Z</time>
      </trkpt>
      <trkpt lat="43.23721" lon="6.3024">
        <ele>147.94921875</ele>
        <time>2012-03-04T08:36:08Z</time>
      </trkpt>
      <trkpt lat="43.23732" lon="6.3026">
        <ele>149.5625</ele>
        <time>2012-03-04T08:36:16Z</time>
      </trkpt>
      <trkpt lat="43.23729" lon="6.30272">
        <ele>150.3125</ele>
        <time>2012-03-04T08:36:20Z</time>
      </trkpt>
      <trkpt lat="43.23728" lon="6.30287">
        <ele>151.41015625</ele>
        <time>2012-03-04T08:36:34Z</time>
      </trkpt>
      <trkpt lat="43.2373" lon="6.30288">
        <ele>151.53515625</ele>
        <time>2012-03-04T08:36:51Z</time>
      </trkpt>
      <trkpt lat="43.2373" lon="6.30287">
        <ele>151.453125</ele>
        <time>2012-03-04T08:37:47Z</time>
      </trkpt>
      <trkpt lat="43.2373" lon="6.30287">
        <ele>151.453125</ele>
        <time>2012-03-04T08:37:48Z</time>
      </trkpt>
      <trkpt lat="43.2373" lon="6.30287">
        <ele>151.453125</ele>
        <time>2012-03-04T08:37:49Z</time>
      </trkpt>
      <trkpt lat="43.2373" lon="6.30287">
        <ele>151.45703125</ele>
        <time>2012-03-04T08:37:53Z</time>
      </trkpt>
      <trkpt lat="43.2373" lon="6.30287">
        <ele>151.4609375</ele>
        <time>2012-03-04T08:37:54Z</time>
      </trkpt>
      <trkpt lat="43.23732" lon="6.30287">
        <ele>151.5625</ele>
        <time>2012-03-04T08:37:57Z</time>
      </trkpt>
      <trkpt lat="43.23732" lon="6.30287">
        <ele>151.578125</ele>
        <time>2012-03-04T08:37:58Z</time>
      </trkpt>
      <trkpt lat="43.23733" lon="6.30288">
        <ele>151.625</ele>
        <time>2012-03-04T08:37:59Z</time>
      </trkpt>
      <trkpt lat="43.23733" lon="6.30288">
        <ele>151.671875</ele>
        <time>2012-03-04T08:38:00Z</time>
      </trkpt>
      <trkpt lat="43.23734" lon="6.30289">
        <ele>151.7421875</ele>
        <time>2012-03-04T08:38:11Z</time>
      </trkpt>
      <trkpt lat="43.23741" lon="6.30286">
        <ele>151.84375</ele>
        <time>2012-03-04T08:38:22Z</time>
      </trkpt>
      <trkpt lat="43.23755" lon="6.30301">
        <ele>154.03125</ele>
        <time>2012-03-04T08:38:32Z</time>
      </trkpt>
      <trkpt lat="43.2376" lon="6.30314">
        <ele>155.8046875</ele>
        <time>2012-03-04T08:38:38Z</time>
      </trkpt>
      <trkpt lat="43.23742" lon="6.30355">
        <ele>158.6953125</ele>
        <time>2012-03-04T08:38:55Z</time>
      </trkpt>
      <trkpt lat="43.2372" lon="6.30412">
        <ele>162.05078125</ele>
        <time>2012-03-04T08:39:14Z</time>
      </trkpt>
      <trkpt lat="43.23695" lon="6.30472">
        <ele>165.484375</ele>
        <time>2012-03-04T08:39:32Z</time>
      </trkpt>
      <trkpt lat="43.23681" lon="6.30521">
        <ele>167.90234375</ele>
        <time>2012-03-04T08:39:45Z</time>
      </trkpt>
      <trkpt lat="43.23663" lon="6.30602">
        <ele>163.02734375</ele>
        <time>2012-03-04T08:40:03Z</time>
      </trkpt>
      <trkpt lat="43.23659" lon="6.30627">
        <ele>159.0234375</ele>
        <time>2012-03-04T08:40:07Z</time>
      </trkpt>
      <trkpt lat="43.23667" lon="6.3069">
        <ele>154.29296875</ele>
        <time>2012-03-04T08:40:16Z</time>
      </trkpt>
      <trkpt lat="43.23702" lon="6.30758">
        <ele>154.08984375</ele>
        <time>2012-03-04T08:40:33Z</time>
      </trkpt>
      <trkpt lat="43.23773" lon="6.30827">
        <ele>154.671875</ele>
        <time>2012-03-04T08:40:56Z</time>
      </trkpt>
      <trkpt lat="43.23815" lon="6.30885">
        <ele>155.4921875</ele>
        <time>2012-03-04T08:41:13Z</time>
      </trkpt>
      <trkpt lat="43.2383" lon="6.30905">
        <ele>155.7109375</ele>
        <time>2012-03-04T08:41:19Z</time>
      </trkpt>
      <trkpt lat="43.23825" lon="6.3092">
        <ele>155.546875</ele>
        <time>2012-03-04T08:41:24Z</time>
      </trkpt>
      <trkpt lat="43.23813" lon="6.30945">
        <ele>155.09765625</ele>
        <time>2012-03-04T08:41:33Z</time>
      </trkpt>
      <trkpt lat="43.2384" lon="6.30993">
        <ele>155.0703125</ele>
        <time>2012-03-04T08:41:50Z</time>
      </trkpt>
      <trkpt lat="43.23837" lon="6.30989">
        <ele>155</ele>
        <time>2012-03-04T08:42:33Z</time>
      </trkpt>
      <trkpt lat="43.23838" lon="6.30989">
        <ele>155.00390625</ele>
        <time>2012-03-04T08:43:37Z</time>
      </trkpt>
      <trkpt lat="43.23856" lon="6.31022">
        <ele>155.66015625</ele>
        <time>2012-03-04T08:43:50Z</time>
      </trkpt>
      <trkpt lat="43.23862" lon="6.31084">
        <ele>156.74609375</ele>
        <time>2012-03-04T08:44:04Z</time>
      </trkpt>
      <trkpt lat="43.23829" lon="6.31142">
        <ele>156.6328125</ele>
        <time>2012-03-04T08:44:20Z</time>
      </trkpt>
      <trkpt lat="43.23762" lon="6.31209">
        <ele>156.828125</ele>
        <time>2012-03-04T08:44:44Z</time>
      </trkpt>
      <trkpt lat="43.23706" lon="6.31264">
        <ele>157.96484375</ele>
        <time>2012-03-04T08:45:05Z</time>
      </trkpt>
      <trkpt lat="43.23682" lon="6.31333">
        <ele>159.6171875</ele>
        <time>2012-03-04T08:45:21Z</time>
      </trkpt>
      <trkpt lat="43.23685" lon="6.31409">
        <ele>161</ele>
        <time>2012-03-04T08:45:38Z</time>
      </trkpt>
      <trkpt lat="43.23698" lon="6.31477">
        <ele>162</ele>
        <time>2012-03-04T08:45:53Z</time>
      </trkpt>
      <trkpt lat="43.23719" lon="6.31592">
        <ele>161.703125</ele>
        <time>2012-03-04T08:46:18Z</time>
      </trkpt>
      <trkpt lat="43.23745" lon="6.31721">
        <ele>162.234375</ele>
        <time>2012-03-04T08:46:47Z</time>
      </trkpt>
      <trkpt lat="43.23771" lon="6.31866">
        <ele>162.43359375</ele>
        <time>2012-03-04T08:47:18Z</time>
      </trkpt>
      <trkpt lat="43.23792" lon="6.31952">
        <ele>163.91015625</ele>
        <time>2012-03-04T08:47:36Z</time>
      </trkpt>
      <trkpt lat="43.23824" lon="6.32053">
        <ele>167.1484375</ele>
        <time>2012-03-04T08:47:58Z</time>
      </trkpt>
      <trkpt lat="43.23828" lon="6.3216">
        <ele>171.6328125</ele>
        <time>2012-03-04T08:48:22Z</time>
      </trkpt>
      <trkpt lat="43.2387" lon="6.32176">
        <ele>171.2421875</ele>
        <time>2012-03-04T08:48:34Z</time>
      </trkpt>
      <trkpt lat="43.23954" lon="6.32154">
        <ele>170.66796875</ele>
        <time>2012-03-04T08:48:58Z</time>
      </trkpt>
      <trkpt lat="43.24035" lon="6.32164">
        <ele>178.609375</ele>
        <time>2012-03-04T08:49:22Z</time>
      </trkpt>
      <trkpt lat="43.24086" lon="6.32139">
        <ele>181.19140625</ele>
        <time>2012-03-04T08:49:39Z</time>
      </trkpt>
      <trkpt lat="43.24142" lon="6.3212">
        <ele>180.30078125</ele>
        <time>2012-03-04T08:49:58Z</time>
      </trkpt>
      <trkpt lat="43.24203" lon="6.32126">
        <ele>177.56640625</ele>
        <time>2012-03-04T08:50:16Z</time>
      </trkpt>
      <trkpt lat="43.24247" lon="6.32168">
        <ele>177.77734375</ele>
        <time>2012-03-04T08:50:32Z</time>
      </trkpt>
      <trkpt lat="43.2428" lon="6.3223">
        <ele>177.2109375</ele>
        <time>2012-03-04T08:50:52Z</time>
      </trkpt>
      <trkpt lat="43.24295" lon="6.32302">
        <ele>177.88671875</ele>
        <time>2012-03-04T08:51:13Z</time>
      </trkpt>
      <trkpt lat="43.24283" lon="6.32377">
        <ele>179.12890625</ele>
        <time>2012-03-04T08:51:32Z</time>
      </trkpt>
      <trkpt lat="43.24274" lon="6.32459">
        <ele>180.9453125</ele>
        <time>2012-03-04T08:51:54Z</time>
      </trkpt>
      <trkpt lat="43.24259" lon="6.32523">
        <ele>182.0546875</ele>
        <time>2012-03-04T08:52:11Z</time>
      </trkpt>
      <trkpt lat="43.24265" lon="6.32589">
        <ele>179.75390625</ele>
        <time>2012-03-04T08:52:25Z</time>
      </trkpt>
      <trkpt lat="43.24255" lon="6.32627">
        <ele>179.5234375</ele>
        <time>2012-03-04T08:52:31Z</time>
      </trkpt>
      <trkpt lat="43.24181" lon="6.32688">
        <ele>181.03125</ele>
        <time>2012-03-04T08:52:45Z</time>
      </trkpt>
      <trkpt lat="43.24168" lon="6.32696">
        <ele>180.5234375</ele>
        <time>2012-03-04T08:52:48Z</time>
      </trkpt>
      <trkpt lat="43.24154" lon="6.32711">
        <ele>180.19140625</ele>
        <time>2012-03-04T08:52:52Z</time>
      </trkpt>
      <trkpt lat="43.2413" lon="6.32777">
        <ele>180.88671875</ele>
        <time>2012-03-04T08:53:08Z</time>
      </trkpt>
      <trkpt lat="43.24123" lon="6.32848">
        <ele>187.1640625</ele>
        <time>2012-03-04T08:53:27Z</time>
      </trkpt>
      <trkpt lat="43.24158" lon="6.32896">
        <ele>189.70703125</ele>
        <time>2012-03-04T08:53:44Z</time>
      </trkpt>
      <trkpt lat="43.24203" lon="6.3293">
        <ele>188.18359375</ele>
        <time>2012-03-04T08:54:02Z</time>
      </trkpt>
      <trkpt lat="43.24228" lon="6.32994">
        <ele>185.9453125</ele>
        <time>2012-03-04T08:54:21Z</time>
      </trkpt>
      <trkpt lat="43.24215" lon="6.33037">
        <ele>185.92578125</ele>
        <time>2012-03-04T08:54:35Z</time>
      </trkpt>
      <trkpt lat="43.24155" lon="6.33087">
        <ele>191.5</ele>
        <time>2012-03-04T08:54:57Z</time>
      </trkpt>
      <trkpt lat="43.24141" lon="6.33119">
        <ele>191.5625</ele>
        <time>2012-03-04T08:55:07Z</time>
      </trkpt>
      <trkpt lat="43.24118" lon="6.33188">
        <ele>192.3203125</ele>
        <time>2012-03-04T08:55:25Z</time>
      </trkpt>
      <trkpt lat="43.24105" lon="6.33252">
        <ele>193.234375</ele>
        <time>2012-03-04T08:55:41Z</time>
      </trkpt>
      <trkpt lat="43.24103" lon="6.3334">
        <ele>189.953125</ele>
        <time>2012-03-04T08:55:57Z</time>
      </trkpt>
      <trkpt lat="43.241" lon="6.334">
        <ele>188.48828125</ele>
        <time>2012-03-04T08:56:07Z</time>
      </trkpt>
      <trkpt lat="43.241" lon="6.33414">
        <ele>188.203125</ele>
        <time>2012-03-04T08:56:09Z</time>
      </trkpt>
      <trkpt lat="43.24116" lon="6.33531">
        <ele>191.9453125</ele>
        <time>2012-03-04T08:56:29Z</time>
      </trkpt>
      <trkpt lat="43.2413" lon="6.33632">
        <ele>191.22265625</ele>
        <time>2012-03-04T08:56:49Z</time>
      </trkpt>
      <trkpt lat="43.24137" lon="6.33666">
        <ele>190.06640625</ele>
        <time>2012-03-04T08:56:55Z</time>
      </trkpt>
      <trkpt lat="43.24139" lon="6.33685">
        <ele>189.8046875</ele>
        <time>2012-03-04T08:56:58Z</time>
      </trkpt>
      <trkpt lat="43.24138" lon="6.33711">
        <ele>190.234375</ele>
        <time>2012-03-04T08:57:02Z</time>
      </trkpt>
      <trkpt lat="43.24132" lon="6.33737">
        <ele>191.29296875</ele>
        <time>2012-03-04T08:57:06Z</time>
      </trkpt>
      <trkpt lat="43.24104" lon="6.33804">
        <ele>192.7578125</ele>
        <time>2012-03-04T08:57:20Z</time>
      </trkpt>
      <trkpt lat="43.24118" lon="6.33875">
        <ele>193.046875</ele>
        <time>2012-03-04T08:57:35Z</time>
      </trkpt>
      <trkpt lat="43.2417" lon="6.33964">
        <ele>193.28125</ele>
        <time>2012-03-04T08:57:58Z</time>
      </trkpt>
      <trkpt lat="43.24223" lon="6.34014">
        <ele>195.90625</ele>
        <time>2012-03-04T08:58:15Z</time>
      </trkpt>
      <trkpt lat="43.24274" lon="6.34043">
        <ele>210.56640625</ele>
        <time>2012-03-04T08:58:31Z</time>
      </trkpt>
      <trkpt lat="43.24317" lon="6.34008">
        <ele>215.4375</ele>
        <time>2012-03-04T08:58:51Z</time>
      </trkpt>
      <trkpt lat="43.24353" lon="6.33957">
        <ele>212.37109375</ele>
        <time>2012-03-04T08:59:13Z</time>
      </trkpt>
      <trkpt lat="43.24377" lon="6.33893">
        <ele>209.19921875</ele>
        <time>2012-03-04T08:59:34Z</time>
      </trkpt>
      <trkpt lat="43.24407" lon="6.33848">
        <ele>207.05859375</ele>
        <time>2012-03-04T08:59:54Z</time>
      </trkpt>
      <trkpt lat="43.24442" lon="6.33833">
        <ele>210.6328125</ele>
        <time>2012-03-04T09:00:12Z</time>
      </trkpt>
      <trkpt lat="43.24452" lon="6.33877">
        <ele>212.6328125</ele>
        <time>2012-03-04T09:00:26Z</time>
      </trkpt>
      <trkpt lat="43.24459" lon="6.33942">
        <ele>209.265625</ele>
        <time>2012-03-04T09:00:48Z</time>
      </trkpt>
      <trkpt lat="43.2446" lon="6.34">
        <ele>224.2265625</ele>
        <time>2012-03-04T09:01:08Z</time>
      </trkpt>
      <trkpt lat="43.24491" lon="6.34025">
        <ele>229.890625</ele>
        <time>2012-03-04T09:01:26Z</time>
      </trkpt>
      <trkpt lat="43.24529" lon="6.34021">
        <ele>228.234375</ele>
        <time>2012-03-04T09:01:44Z</time>
      </trkpt>
      <trkpt lat="43.24573" lon="6.3401">
        <ele>221.1953125</ele>
        <time>2012-03-04T09:02:04Z</time>
      </trkpt>
      <trkpt lat="43.24611" lon="6.34043">
        <ele>226.078125</ele>
        <time>2012-03-04T09:02:23Z</time>
      </trkpt>
      <trkpt lat="43.24657" lon="6.34072">
        <ele>235.3203125</ele>
        <time>2012-03-04T09:02:46Z</time>
      </trkpt>
      <trkpt lat="43.24703" lon="6.34067">
        <ele>232.87890625</ele>
        <time>2012-03-04T09:03:07Z</time>
      </trkpt>
      <trkpt lat="43.24744" lon="6.34081">
        <ele>241.25</ele>
        <time>2012-03-04T09:03:26Z</time>
      </trkpt>
      <trkpt lat="43.24788" lon="6.34064">
        <ele>228.48046875</ele>
        <time>2012-03-04T09:03:48Z</time>
      </trkpt>
      <trkpt lat="43.24822" lon="6.34096">
        <ele>237.69921875</ele>
        <time>2012-03-04T09:04:08Z</time>
      </trkpt>
      <trkpt lat="43.24845" lon="6.34129">
        <ele>252.16015625</ele>
        <time>2012-03-04T09:04:24Z</time>
      </trkpt>
      <trkpt lat="43.24855" lon="6.34109">
        <ele>252.65234375</ele>
        <time>2012-03-04T09:04:34Z</time>
      </trkpt>
      <trkpt lat="43.24865" lon="6.34068">
        <ele>248.10546875</ele>
        <time>2012-03-04T09:04:49Z</time>
      </trkpt>
      <trkpt lat="43.24894" lon="6.34023">
        <ele>247.08203125</ele>
        <time>2012-03-04T09:05:08Z</time>
      </trkpt>
      <trkpt lat="43.24897" lon="6.34018">
        <ele>246.390625</ele>
        <time>2012-03-04T09:05:10Z</time>
      </trkpt>
      <trkpt lat="43.24912" lon="6.33975">
        <ele>241.0078125</ele>
        <time>2012-03-04T09:05:27Z</time>
      </trkpt>
      <trkpt lat="43.24943" lon="6.33947">
        <ele>236.37890625</ele>
        <time>2012-03-04T09:05:44Z</time>
      </trkpt>
      <trkpt lat="43.2498" lon="6.33964">
        <ele>229.203125</ele>
        <time>2012-03-04T09:06:00Z</time>
      </trkpt>
      <trkpt lat="43.24961" lon="6.34013">
        <ele>234.609375</ele>
        <time>2012-03-04T09:06:17Z</time>
      </trkpt>
      <trkpt lat="43.2496" lon="6.34063">
        <ele>240.78125</ele>
        <time>2012-03-04T09:06:33Z</time>
      </trkpt>
      <trkpt lat="43.24985" lon="6.34123">
        <ele>246.6796875</ele>
        <time>2012-03-04T09:06:55Z</time>
      </trkpt>
      <trkpt lat="43.25018" lon="6.34169">
        <ele>248.6015625</ele>
        <time>2012-03-04T09:07:15Z</time>
      </trkpt>
      <trkpt lat="43.25047" lon="6.34214">
        <ele>255.67578125</ele>
        <time>2012-03-04T09:07:36Z</time>
      </trkpt>
      <trkpt lat="43.25074" lon="6.34244">
        <ele>261.2734375</ele>
        <time>2012-03-04T09:07:53Z</time>
      </trkpt>
      <trkpt lat="43.25096" lon="6.34257">
        <ele>263.7890625</ele>
        <time>2012-03-04T09:08:08Z</time>
      </trkpt>
      <trkpt lat="43.25096" lon="6.34257">
        <ele>263.75</ele>
        <time>2012-03-04T09:08:25Z</time>
      </trkpt>
      <trkpt lat="43.25098" lon="6.3426">
        <ele>264.5078125</ele>
        <time>2012-03-04T09:09:55Z</time>
      </trkpt>
      <trkpt lat="43.25099" lon="6.34259">
        <ele>264.02734375</ele>
        <time>2012-03-04T09:11:23Z</time>
      </trkpt>
      <trkpt lat="43.25118" lon="6.34262">
        <ele>262.11328125</ele>
        <time>2012-03-04T09:13:29Z</time>
      </trkpt>
      <trkpt lat="43.25151" lon="6.34273">
        <ele>259.42578125</ele>
        <time>2012-03-04T09:13:44Z</time>
      </trkpt>
      <trkpt lat="43.25178" lon="6.343">
        <ele>258.875</ele>
        <time>2012-03-04T09:14:00Z</time>
      </trkpt>
      <trkpt lat="43.25204" lon="6.34348">
        <ele>263.1875</ele>
        <time>2012-03-04T09:14:20Z</time>
      </trkpt>
      <trkpt lat="43.25227" lon="6.34405">
        <ele>268.7578125</ele>
        <time>2012-03-04T09:14:42Z</time>
      </trkpt>
      <trkpt lat="43.25218" lon="6.34446">
        <ele>277.1796875</ele>
        <time>2012-03-04T09:14:57Z</time>
      </trkpt>
      <trkpt lat="43.25225" lon="6.34479">
        <ele>286.40234375</ele>
        <time>2012-03-04T09:15:10Z</time>
      </trkpt>
      <trkpt lat="43.2525" lon="6.34469">
        <ele>290.4609375</ele>
        <time>2012-03-04T09:15:23Z</time>
      </trkpt>
      <trkpt lat="43.25283" lon="6.34435">
        <ele>293.56640625</ele>
        <time>2012-03-04T09:15:42Z</time>
      </trkpt>
      <trkpt lat="43.25311" lon="6.34396">
        <ele>291.08984375</ele>
        <time>2012-03-04T09:16:00Z</time>
      </trkpt>
      <trkpt lat="43.25353" lon="6.34368">
        <ele>292.28125</ele>
        <time>2012-03-04T09:16:21Z</time>
      </trkpt>
      <trkpt lat="43.25398" lon="6.34345">
        <ele>285.109375</ele>
        <time>2012-03-04T09:16:42Z</time>
      </trkpt>
      <trkpt lat="43.25409" lon="6.34343">
        <ele>282.76171875</ele>
        <time>2012-03-04T09:16:47Z</time>
      </trkpt>
      <trkpt lat="43.25435" lon="6.34366">
        <ele>280.99609375</ele>
        <time>2012-03-04T09:17:02Z</time>
      </trkpt>
      <trkpt lat="43.2546" lon="6.34412">
        <ele>280.8125</ele>
        <time>2012-03-04T09:17:21Z</time>
      </trkpt>
      <trkpt lat="43.25484" lon="6.34469">
        <ele>277.2890625</ele>
        <time>2012-03-04T09:17:41Z</time>
      </trkpt>
      <trkpt lat="43.25493" lon="6.34531">
        <ele>275.48828125</ele>
        <time>2012-03-04T09:18:00Z</time>
      </trkpt>
      <trkpt lat="43.25493" lon="6.3459">
        <ele>274.19921875</ele>
        <time>2012-03-04T09:18:19Z</time>
      </trkpt>
      <trkpt lat="43.25485" lon="6.34635">
        <ele>276.7734375</ele>
        <time>2012-03-04T09:18:34Z</time>
      </trkpt>
      <trkpt lat="43.25469" lon="6.34697">
        <ele>282.0625</ele>
        <time>2012-03-04T09:18:55Z</time>
      </trkpt>
      <trkpt lat="43.25466" lon="6.34753">
        <ele>284.51171875</ele>
        <time>2012-03-04T09:19:13Z</time>
      </trkpt>
      <trkpt lat="43.25464" lon="6.34811">
        <ele>300.4296875</ele>
        <time>2012-03-04T09:19:32Z</time>
      </trkpt>
      <trkpt lat="43.25474" lon="6.34862">
        <ele>319.08984375</ele>
        <time>2012-03-04T09:19:49Z</time>
      </trkpt>
      <trkpt lat="43.25502" lon="6.3486">
        <ele>312.5703125</ele>
        <time>2012-03-04T09:20:01Z</time>
      </trkpt>
      <trkpt lat="43.25542" lon="6.34886">
        <ele>324.203125</ele>
        <time>2012-03-04T09:20:21Z</time>
      </trkpt>
      <trkpt lat="43.2558" lon="6.34892">
        <ele>330.47265625</ele>
        <time>2012-03-04T09:20:38Z</time>
      </trkpt>
      <trkpt lat="43.25628" lon="6.34873">
        <ele>329.9375</ele>
        <time>2012-03-04T09:21:01Z</time>
      </trkpt>
      <trkpt lat="43.25667" lon="6.34834">
        <ele>317.57421875</ele>
        <time>2012-03-04T09:21:24Z</time>
      </trkpt>
      <trkpt lat="43.25689" lon="6.34827">
        <ele>311.62109375</ele>
        <time>2012-03-04T09:21:36Z</time>
      </trkpt>
      <trkpt lat="43.25704" lon="6.34851">
        <ele>314.84375</ele>
        <time>2012-03-04T09:21:50Z</time>
      </trkpt>
      <trkpt lat="43.25706" lon="6.34905">
        <ele>329.984375</ele>
        <time>2012-03-04T09:22:09Z</time>
      </trkpt>
      <trkpt lat="43.25726" lon="6.34924">
        <ele>336.7109375</ele>
        <time>2012-03-04T09:22:20Z</time>
      </trkpt>
      <trkpt lat="43.25761" lon="6.34908">
        <ele>336.03515625</ele>
        <time>2012-03-04T09:22:37Z</time>
      </trkpt>
      <trkpt lat="43.25802" lon="6.349">
        <ele>339.80859375</ele>
        <time>2012-03-04T09:22:57Z</time>
      </trkpt>
      <trkpt lat="43.25812" lon="6.34894">
        <ele>338.64453125</ele>
        <time>2012-03-04T09:23:03Z</time>
      </trkpt>
      <trkpt lat="43.2584" lon="6.34854">
        <ele>326.390625</ele>
        <time>2012-03-04T09:23:22Z</time>
      </trkpt>
      <trkpt lat="43.25863" lon="6.34861">
        <ele>322.78515625</ele>
        <time>2012-03-04T09:23:33Z</time>
      </trkpt>
      <trkpt lat="43.25886" lon="6.34916">
        <ele>331.65625</ele>
        <time>2012-03-04T09:23:54Z</time>
      </trkpt>
      <trkpt lat="43.25913" lon="6.34955">
        <ele>340.046875</ele>
        <time>2012-03-04T09:24:12Z</time>
      </trkpt>
      <trkpt lat="43.25965" lon="6.34976">
        <ele>329.05078125</ele>
        <time>2012-03-04T09:24:37Z</time>
      </trkpt>
      <trkpt lat="43.25984" lon="6.35025">
        <ele>331.37890625</ele>
        <time>2012-03-04T09:24:55Z</time>
      </trkpt>
      <trkpt lat="43.25999" lon="6.35075">
        <ele>336.796875</ele>
        <time>2012-03-04T09:25:13Z</time>
      </trkpt>
      <trkpt lat="43.26021" lon="6.35126">
        <ele>338.33203125</ele>
        <time>2012-03-04T09:25:33Z</time>
      </trkpt>
      <trkpt lat="43.26039" lon="6.35173">
        <ele>339.3515625</ele>
        <time>2012-03-04T09:25:51Z</time>
      </trkpt>
      <trkpt lat="43.26053" lon="6.35214">
        <ele>343.56640625</ele>
        <time>2012-03-04T09:26:06Z</time>
      </trkpt>
      <trkpt lat="43.26077" lon="6.35261">
        <ele>347.7578125</ele>
        <time>2012-03-04T09:26:25Z</time>
      </trkpt>
      <trkpt lat="43.26089" lon="6.35297">
        <ele>351.6875</ele>
        <time>2012-03-04T09:26:39Z</time>
      </trkpt>
      <trkpt lat="43.26129" lon="6.353">
        <ele>345.18359375</ele>
        <time>2012-03-04T09:26:57Z</time>
      </trkpt>
      <trkpt lat="43.26147" lon="6.35333">
        <ele>336.765625</ele>
        <time>2012-03-04T09:27:12Z</time>
      </trkpt>
      <trkpt lat="43.26119" lon="6.35363">
        <ele>338.62890625</ele>
        <time>2012-03-04T09:27:29Z</time>
      </trkpt>
      <trkpt lat="43.26079" lon="6.35373">
        <ele>345.63671875</ele>
        <time>2012-03-04T09:27:47Z</time>
      </trkpt>
      <trkpt lat="43.26053" lon="6.35413">
        <ele>347.4375</ele>
        <time>2012-03-04T09:28:06Z</time>
      </trkpt>
      <trkpt lat="43.26042" lon="6.3545">
        <ele>350.828125</ele>
        <time>2012-03-04T09:28:22Z</time>
      </trkpt>
      <trkpt lat="43.26032" lon="6.3549">
        <ele>354.76953125</ele>
        <time>2012-03-04T09:28:37Z</time>
      </trkpt>
      <trkpt lat="43.26019" lon="6.35537">
        <ele>361.37109375</ele>
        <time>2012-03-04T09:28:55Z</time>
      </trkpt>
      <trkpt lat="43.2602" lon="6.35595">
        <ele>364.8125</ele>
        <time>2012-03-04T09:29:14Z</time>
      </trkpt>
      <trkpt lat="43.26016" lon="6.35646">
        <ele>371.6328125</ele>
        <time>2012-03-04T09:29:31Z</time>
      </trkpt>
      <trkpt lat="43.26008" lon="6.35702">
        <ele>381.9453125</ele>
        <time>2012-03-04T09:29:51Z</time>
      </trkpt>
      <trkpt lat="43.25989" lon="6.35735">
        <ele>387.08203125</ele>
        <time>2012-03-04T09:30:06Z</time>
      </trkpt>
      <trkpt lat="43.2601" lon="6.35747">
        <ele>394.05859375</ele>
        <time>2012-03-04T09:30:19Z</time>
      </trkpt>
      <trkpt lat="43.26017" lon="6.35746">
        <ele>396.20703125</ele>
        <time>2012-03-04T09:30:32Z</time>
      </trkpt>
      <trkpt lat="43.26015" lon="6.35746">
        <ele>395.765625</ele>
        <time>2012-03-04T09:30:55Z</time>
      </trkpt>
      <trkpt lat="43.26015" lon="6.35746">
        <ele>395.48046875</ele>
        <time>2012-03-04T09:31:19Z</time>
      </trkpt>
      <trkpt lat="43.26015" lon="6.35743">
        <ele>394.65625</ele>
        <time>2012-03-04T09:34:56Z</time>
      </trkpt>
      <trkpt lat="43.26015" lon="6.35743">
        <ele>394.59375</ele>
        <time>2012-03-04T09:35:24Z</time>
      </trkpt>
      <trkpt lat="43.26015" lon="6.35743">
        <ele>394.6640625</ele>
        <time>2012-03-04T09:37:33Z</time>
      </trkpt>
      <trkpt lat="43.26032" lon="6.35727">
        <ele>395.68359375</ele>
        <time>2012-03-04T09:38:22Z</time>
      </trkpt>
      <trkpt lat="43.26064" lon="6.35688">
        <ele>395.8359375</ele>
        <time>2012-03-04T09:38:41Z</time>
      </trkpt>
      <trkpt lat="43.26096" lon="6.35646">
        <ele>399.30859375</ele>
        <time>2012-03-04T09:39:01Z</time>
      </trkpt>
      <trkpt lat="43.2611" lon="6.35604">
        <ele>394.01171875</ele>
        <time>2012-03-04T09:39:17Z</time>
      </trkpt>
      <trkpt lat="43.26136" lon="6.35567">
        <ele>388.43359375</ele>
        <time>2012-03-04T09:39:35Z</time>
      </trkpt>
      <trkpt lat="43.26179" lon="6.35579">
        <ele>396</ele>
        <time>2012-03-04T09:39:55Z</time>
      </trkpt>
      <trkpt lat="43.26205" lon="6.35569">
        <ele>395.3984375</ele>
        <time>2012-03-04T09:40:08Z</time>
      </trkpt>
      <trkpt lat="43.26242" lon="6.35565">
        <ele>399.26171875</ele>
        <time>2012-03-04T09:40:25Z</time>
      </trkpt>
      <trkpt lat="43.26273" lon="6.35564">
        <ele>400.125</ele>
        <time>2012-03-04T09:40:41Z</time>
      </trkpt>
      <trkpt lat="43.26308" lon="6.35562">
        <ele>395.140625</ele>
        <time>2012-03-04T09:40:58Z</time>
      </trkpt>
      <trkpt lat="43.26334" lon="6.35585">
        <ele>392.05078125</ele>
        <time>2012-03-04T09:41:13Z</time>
      </trkpt>
      <trkpt lat="43.26353" lon="6.35627">
        <ele>392.2734375</ele>
        <time>2012-03-04T09:41:30Z</time>
      </trkpt>
      <trkpt lat="43.26375" lon="6.35676">
        <ele>392.75390625</ele>
        <time>2012-03-04T09:41:49Z</time>
      </trkpt>
      <trkpt lat="43.26384" lon="6.35729">
        <ele>400.1484375</ele>
        <time>2012-03-04T09:42:07Z</time>
      </trkpt>
      <trkpt lat="43.26371" lon="6.35775">
        <ele>409.66015625</ele>
        <time>2012-03-04T09:42:24Z</time>
      </trkpt>
      <trkpt lat="43.2637" lon="6.35784">
        <ele>411.94140625</ele>
        <time>2012-03-04T09:42:27Z</time>
      </trkpt>
      <trkpt lat="43.26374" lon="6.35795">
        <ele>414.59375</ele>
        <time>2012-03-04T09:42:31Z</time>
      </trkpt>
      <trkpt lat="43.26386" lon="6.35805">
        <ele>416.1640625</ele>
        <time>2012-03-04T09:42:37Z</time>
      </trkpt>
      <trkpt lat="43.26417" lon="6.35822">
        <ele>419.80859375</ele>
        <time>2012-03-04T09:42:53Z</time>
      </trkpt>
      <trkpt lat="43.26443" lon="6.35825">
        <ele>428.234375</ele>
        <time>2012-03-04T09:43:06Z</time>
      </trkpt>
      <trkpt lat="43.26454" lon="6.35784">
        <ele>421.56640625</ele>
        <time>2012-03-04T09:43:21Z</time>
      </trkpt>
      <trkpt lat="43.26479" lon="6.35765">
        <ele>419.390625</ele>
        <time>2012-03-04T09:43:35Z</time>
      </trkpt>
      <trkpt lat="43.26524" lon="6.35782">
        <ele>425.15234375</ele>
        <time>2012-03-04T09:43:55Z</time>
      </trkpt>
      <trkpt lat="43.26562" lon="6.35791">
        <ele>426.875</ele>
        <time>2012-03-04T09:44:13Z</time>
      </trkpt>
      <trkpt lat="43.26597" lon="6.358">
        <ele>425.6484375</ele>
        <time>2012-03-04T09:44:30Z</time>
      </trkpt>
      <trkpt lat="43.26632" lon="6.35823">
        <ele>429.20703125</ele>
        <time>2012-03-04T09:44:47Z</time>
      </trkpt>
      <trkpt lat="43.2665" lon="6.35849">
        <ele>436.3125</ele>
        <time>2012-03-04T09:45:00Z</time>
      </trkpt>
      <trkpt lat="43.26659" lon="6.35853">
        <ele>436.77734375</ele>
        <time>2012-03-04T09:45:04Z</time>
      </trkpt>
      <trkpt lat="43.26686" lon="6.35846">
        <ele>433.46484375</ele>
        <time>2012-03-04T09:45:18Z</time>
      </trkpt>
      <trkpt lat="43.26716" lon="6.35853">
        <ele>431.6875</ele>
        <time>2012-03-04T09:45:32Z</time>
      </trkpt>
      <trkpt lat="43.26753" lon="6.35874">
        <ele>428.203125</ele>
        <time>2012-03-04T09:45:48Z</time>
      </trkpt>
      <trkpt lat="43.26779" lon="6.35894">
        <ele>421.55859375</ele>
        <time>2012-03-04T09:46:03Z</time>
      </trkpt>
      <trkpt lat="43.26783" lon="6.35907">
        <ele>419.9765625</ele>
        <time>2012-03-04T09:46:09Z</time>
      </trkpt>
      <trkpt lat="43.26772" lon="6.35956">
        <ele>426.0234375</ele>
        <time>2012-03-04T09:46:26Z</time>
      </trkpt>
      <trkpt lat="43.26763" lon="6.35997">
        <ele>433.203125</ele>
        <time>2012-03-04T09:46:41Z</time>
      </trkpt>
      <trkpt lat="43.26778" lon="6.3603">
        <ele>427.078125</ele>
        <time>2012-03-04T09:46:55Z</time>
      </trkpt>
      <trkpt lat="43.2678" lon="6.36038">
        <ele>426.05078125</ele>
        <time>2012-03-04T09:46:58Z</time>
      </trkpt>
      <trkpt lat="43.26775" lon="6.36079">
        <ele>427.0703125</ele>
        <time>2012-03-04T09:47:12Z</time>
      </trkpt>
      <trkpt lat="43.26774" lon="6.36083">
        <ele>427.3046875</ele>
        <time>2012-03-04T09:47:13Z</time>
      </trkpt>
      <trkpt lat="43.26752" lon="6.36117">
        <ele>436.578125</ele>
        <time>2012-03-04T09:47:28Z</time>
      </trkpt>
      <trkpt lat="43.26751" lon="6.36159">
        <ele>442.3671875</ele>
        <time>2012-03-04T09:47:43Z</time>
      </trkpt>
      <trkpt lat="43.26759" lon="6.36189">
        <ele>446.078125</ele>
        <time>2012-03-04T09:47:55Z</time>
      </trkpt>
      <trkpt lat="43.26784" lon="6.36202">
        <ele>441.140625</ele>
        <time>2012-03-04T09:48:08Z</time>
      </trkpt>
      <trkpt lat="43.26808" lon="6.36242">
        <ele>436.8515625</ele>
        <time>2012-03-04T09:48:21Z</time>
      </trkpt>
      <trkpt lat="43.26799" lon="6.36298">
        <ele>429.2265625</ele>
        <time>2012-03-04T09:48:34Z</time>
      </trkpt>
      <trkpt lat="43.26764" lon="6.36359">
        <ele>434.2265625</ele>
        <time>2012-03-04T09:48:51Z</time>
      </trkpt>
      <trkpt lat="43.26759" lon="6.3637">
        <ele>435.30078125</ele>
        <time>2012-03-04T09:48:54Z</time>
      </trkpt>
      <trkpt lat="43.26763" lon="6.36399">
        <ele>432.609375</ele>
        <time>2012-03-04T09:49:01Z</time>
      </trkpt>
      <trkpt lat="43.2674" lon="6.36458">
        <ele>443.859375</ele>
        <time>2012-03-04T09:49:15Z</time>
      </trkpt>
      <trkpt lat="43.2673" lon="6.36472">
        <ele>449.8203125</ele>
        <time>2012-03-04T09:49:19Z</time>
      </trkpt>
      <trkpt lat="43.26732" lon="6.36487">
        <ele>455.23046875</ele>
        <time>2012-03-04T09:49:23Z</time>
      </trkpt>
      <trkpt lat="43.26771" lon="6.3649">
        <ele>453.5859375</ele>
        <time>2012-03-04T09:49:36Z</time>
      </trkpt>
      <trkpt lat="43.26814" lon="6.36489">
        <ele>446.765625</ele>
        <time>2012-03-04T09:49:53Z</time>
      </trkpt>
      <trkpt lat="43.26844" lon="6.36483">
        <ele>437.046875</ele>
        <time>2012-03-04T09:50:06Z</time>
      </trkpt>
      <trkpt lat="43.26855" lon="6.36494">
        <ele>435.16796875</ele>
        <time>2012-03-04T09:50:12Z</time>
      </trkpt>
      <trkpt lat="43.26858" lon="6.36502">
        <ele>435.703125</ele>
        <time>2012-03-04T09:50:15Z</time>
      </trkpt>
      <trkpt lat="43.26845" lon="6.36551">
        <ele>443.98046875</ele>
        <time>2012-03-04T09:50:32Z</time>
      </trkpt>
      <trkpt lat="43.26832" lon="6.366">
        <ele>452.5078125</ele>
        <time>2012-03-04T09:50:48Z</time>
      </trkpt>
      <trkpt lat="43.26821" lon="6.36645">
        <ele>465.58203125</ele>
        <time>2012-03-04T09:51:04Z</time>
      </trkpt>
      <trkpt lat="43.26819" lon="6.36652">
        <ele>467.328125</ele>
        <time>2012-03-04T09:51:07Z</time>
      </trkpt>
      <trkpt lat="43.2682" lon="6.3666">
        <ele>468.89453125</ele>
        <time>2012-03-04T09:51:10Z</time>
      </trkpt>
      <trkpt lat="43.26819" lon="6.36689">
        <ele>475.7109375</ele>
        <time>2012-03-04T09:51:19Z</time>
      </trkpt>
      <trkpt lat="43.26839" lon="6.36691">
        <ele>478.52734375</ele>
        <time>2012-03-04T09:51:30Z</time>
      </trkpt>
      <trkpt lat="43.26841" lon="6.36686">
        <ele>477.328125</ele>
        <time>2012-03-04T09:51:32Z</time>
      </trkpt>
      <trkpt lat="43.26869" lon="6.36646">
        <ele>474.0625</ele>
        <time>2012-03-04T09:51:51Z</time>
      </trkpt>
      <trkpt lat="43.26879" lon="6.36637">
        <ele>474.44140625</ele>
        <time>2012-03-04T09:52:02Z</time>
      </trkpt>
      <trkpt lat="43.26931" lon="6.36603">
        <ele>470.4140625</ele>
        <time>2012-03-04T09:52:25Z</time>
      </trkpt>
      <trkpt lat="43.26968" lon="6.36611">
        <ele>471.31640625</ele>
        <time>2012-03-04T09:52:43Z</time>
      </trkpt>
      <trkpt lat="43.27008" lon="6.36626">
        <ele>472.9609375</ele>
        <time>2012-03-04T09:53:01Z</time>
      </trkpt>
      <trkpt lat="43.2705" lon="6.36648">
        <ele>475.1875</ele>
        <time>2012-03-04T09:53:21Z</time>
      </trkpt>
      <trkpt lat="43.27085" lon="6.36656">
        <ele>474.6328125</ele>
        <time>2012-03-04T09:53:38Z</time>
      </trkpt>
      <trkpt lat="43.27105" lon="6.36685">
        <ele>480.95703125</ele>
        <time>2012-03-04T09:53:52Z</time>
      </trkpt>
      <trkpt lat="43.27118" lon="6.36724">
        <ele>490.484375</ele>
        <time>2012-03-04T09:54:08Z</time>
      </trkpt>
      <trkpt lat="43.27132" lon="6.36754">
        <ele>502.02734375</ele>
        <time>2012-03-04T09:54:24Z</time>
      </trkpt>
      <trkpt lat="43.27134" lon="6.36753">
        <ele>502.40625</ele>
        <time>2012-03-04T09:54:25Z</time>
      </trkpt>
      <trkpt lat="43.27155" lon="6.36711">
        <ele>503.5625</ele>
        <time>2012-03-04T09:54:42Z</time>
      </trkpt>
      <trkpt lat="43.27167" lon="6.36648">
        <ele>500.61328125</ele>
        <time>2012-03-04T09:55:04Z</time>
      </trkpt>
      <trkpt lat="43.27188" lon="6.36596">
        <ele>506.09765625</ele>
        <time>2012-03-04T09:55:24Z</time>
      </trkpt>
      <trkpt lat="43.27197" lon="6.36544">
        <ele>506.19140625</ele>
        <time>2012-03-04T09:55:43Z</time>
      </trkpt>
      <trkpt lat="43.27188" lon="6.36487">
        <ele>501.71484375</ele>
        <time>2012-03-04T09:56:02Z</time>
      </trkpt>
      <trkpt lat="43.27188" lon="6.3644">
        <ele>501.15234375</ele>
        <time>2012-03-04T09:56:19Z</time>
      </trkpt>
      <trkpt lat="43.27191" lon="6.36397">
        <ele>497.4140625</ele>
        <time>2012-03-04T09:56:36Z</time>
      </trkpt>
      <trkpt lat="43.27234" lon="6.36387">
        <ele>504.46484375</ele>
        <time>2012-03-04T09:56:56Z</time>
      </trkpt>
      <trkpt lat="43.27276" lon="6.36395">
        <ele>509</ele>
        <time>2012-03-04T09:57:17Z</time>
      </trkpt>
      <trkpt lat="43.27293" lon="6.3639">
        <ele>506.4296875</ele>
        <time>2012-03-04T09:57:26Z</time>
      </trkpt>
      <trkpt lat="43.273" lon="6.36385">
        <ele>504.53125</ele>
        <time>2012-03-04T09:57:34Z</time>
      </trkpt>
      <trkpt lat="43.27304" lon="6.36388">
        <ele>505.37109375</ele>
        <time>2012-03-04T09:57:39Z</time>
      </trkpt>
      <trkpt lat="43.2733" lon="6.36389">
        <ele>501.609375</ele>
        <time>2012-03-04T09:58:02Z</time>
      </trkpt>
      <trkpt lat="43.27357" lon="6.36412">
        <ele>506.4375</ele>
        <time>2012-03-04T09:58:21Z</time>
      </trkpt>
      <trkpt lat="43.27384" lon="6.36442">
        <ele>517.44921875</ele>
        <time>2012-03-04T09:58:39Z</time>
      </trkpt>
      <trkpt lat="43.27424" lon="6.36445">
        <ele>521.3828125</ele>
        <time>2012-03-04T09:59:00Z</time>
      </trkpt>
      <trkpt lat="43.27442" lon="6.36453">
        <ele>529.4765625</ele>
        <time>2012-03-04T09:59:09Z</time>
      </trkpt>
      <trkpt lat="43.27449" lon="6.36451">
        <ele>530.19140625</ele>
        <time>2012-03-04T09:59:13Z</time>
      </trkpt>
      <trkpt lat="43.27481" lon="6.36399">
        <ele>516.8515625</ele>
        <time>2012-03-04T09:59:39Z</time>
      </trkpt>
      <trkpt lat="43.27508" lon="6.36395">
        <ele>515.265625</ele>
        <time>2012-03-04T09:59:55Z</time>
      </trkpt>
      <trkpt lat="43.27538" lon="6.36427">
        <ele>514.55859375</ele>
        <time>2012-03-04T10:00:16Z</time>
      </trkpt>
      <trkpt lat="43.27565" lon="6.36478">
        <ele>521.32421875</ele>
        <time>2012-03-04T10:00:40Z</time>
      </trkpt>
      <trkpt lat="43.27571" lon="6.36492">
        <ele>524.2421875</ele>
        <time>2012-03-04T10:00:46Z</time>
      </trkpt>
      <trkpt lat="43.27583" lon="6.36496">
        <ele>523.0703125</ele>
        <time>2012-03-04T10:00:53Z</time>
      </trkpt>
      <trkpt lat="43.27612" lon="6.36501">
        <ele>524.91796875</ele>
        <time>2012-03-04T10:01:10Z</time>
      </trkpt>
      <trkpt lat="43.27623" lon="6.36514">
        <ele>530.67578125</ele>
        <time>2012-03-04T10:01:18Z</time>
      </trkpt>
      <trkpt lat="43.27629" lon="6.36525">
        <ele>534.67578125</ele>
        <time>2012-03-04T10:01:25Z</time>
      </trkpt>
      <trkpt lat="43.27649" lon="6.36537">
        <ele>542.703125</ele>
        <time>2012-03-04T10:01:39Z</time>
      </trkpt>
      <trkpt lat="43.27676" lon="6.36518">
        <ele>547.03125</ele>
        <time>2012-03-04T10:01:57Z</time>
      </trkpt>
      <trkpt lat="43.27688" lon="6.36506">
        <ele>546.8828125</ele>
        <time>2012-03-04T10:02:05Z</time>
      </trkpt>
      <trkpt lat="43.27721" lon="6.36481">
        <ele>544.82421875</ele>
        <time>2012-03-04T10:02:25Z</time>
      </trkpt>
      <trkpt lat="43.27756" lon="6.36468">
        <ele>551.015625</ele>
        <time>2012-03-04T10:02:46Z</time>
      </trkpt>
      <trkpt lat="43.27776" lon="6.36434">
        <ele>548.8046875</ele>
        <time>2012-03-04T10:03:05Z</time>
      </trkpt>
      <trkpt lat="43.27802" lon="6.3641">
        <ele>548.609375</ele>
        <time>2012-03-04T10:03:22Z</time>
      </trkpt>
      <trkpt lat="43.27837" lon="6.36387">
        <ele>551.00390625</ele>
        <time>2012-03-04T10:03:41Z</time>
      </trkpt>
      <trkpt lat="43.27874" lon="6.36351">
        <ele>555.03515625</ele>
        <time>2012-03-04T10:04:03Z</time>
      </trkpt>
      <trkpt lat="43.27892" lon="6.36318">
        <ele>553.15625</ele>
        <time>2012-03-04T10:04:20Z</time>
      </trkpt>
      <trkpt lat="43.27923" lon="6.36292">
        <ele>551.53515625</ele>
        <time>2012-03-04T10:04:38Z</time>
      </trkpt>
      <trkpt lat="43.27962" lon="6.36288">
        <ele>553.73828125</ele>
        <time>2012-03-04T10:04:57Z</time>
      </trkpt>
      <trkpt lat="43.27998" lon="6.36286">
        <ele>556.2890625</ele>
        <time>2012-03-04T10:05:16Z</time>
      </trkpt>
      <trkpt lat="43.28041" lon="6.3627">
        <ele>556.328125</ele>
        <time>2012-03-04T10:05:40Z</time>
      </trkpt>
      <trkpt lat="43.28081" lon="6.36273">
        <ele>554.74609375</ele>
        <time>2012-03-04T10:06:00Z</time>
      </trkpt>
      <trkpt lat="43.28087" lon="6.36276">
        <ele>553.90625</ele>
        <time>2012-03-04T10:06:04Z</time>
      </trkpt>
      <trkpt lat="43.28091" lon="6.36276">
        <ele>553.265625</ele>
        <time>2012-03-04T10:06:07Z</time>
      </trkpt>
      <trkpt lat="43.28097" lon="6.36274">
        <ele>552.4296875</ele>
        <time>2012-03-04T10:06:27Z</time>
      </trkpt>
      <trkpt lat="43.28099" lon="6.36273">
        <ele>552.1015625</ele>
        <time>2012-03-04T10:06:33Z</time>
      </trkpt>
      <trkpt lat="43.2811" lon="6.36249">
        <ele>553.59375</ele>
        <time>2012-03-04T10:06:46Z</time>
      </trkpt>
      <trkpt lat="43.28141" lon="6.3622">
        <ele>553.65234375</ele>
        <time>2012-03-04T10:07:07Z</time>
      </trkpt>
      <trkpt lat="43.28162" lon="6.36202">
        <ele>554.29296875</ele>
        <time>2012-03-04T10:07:22Z</time>
      </trkpt>
      <trkpt lat="43.28187" lon="6.36183">
        <ele>555.49609375</ele>
        <time>2012-03-04T10:07:37Z</time>
      </trkpt>
      <trkpt lat="43.28218" lon="6.36157">
        <ele>558.453125</ele>
        <time>2012-03-04T10:07:57Z</time>
      </trkpt>
      <trkpt lat="43.28245" lon="6.36138">
        <ele>559.98046875</ele>
        <time>2012-03-04T10:08:15Z</time>
      </trkpt>
      <trkpt lat="43.28274" lon="6.36114">
        <ele>564.13671875</ele>
        <time>2012-03-04T10:08:33Z</time>
      </trkpt>
      <trkpt lat="43.28299" lon="6.36096">
        <ele>565.93359375</ele>
        <time>2012-03-04T10:08:49Z</time>
      </trkpt>
      <trkpt lat="43.28329" lon="6.36083">
        <ele>571.44140625</ele>
        <time>2012-03-04T10:09:06Z</time>
      </trkpt>
      <trkpt lat="43.28356" lon="6.3609">
        <ele>574.60546875</ele>
        <time>2012-03-04T10:09:21Z</time>
      </trkpt>
      <trkpt lat="43.28392" lon="6.36108">
        <ele>579.94921875</ele>
        <time>2012-03-04T10:09:42Z</time>
      </trkpt>
      <trkpt lat="43.28425" lon="6.36128">
        <ele>581.421875</ele>
        <time>2012-03-04T10:10:04Z</time>
      </trkpt>
      <trkpt lat="43.28453" lon="6.36132">
        <ele>582.171875</ele>
        <time>2012-03-04T10:10:22Z</time>
      </trkpt>
      <trkpt lat="43.28472" lon="6.36131">
        <ele>581.078125</ele>
        <time>2012-03-04T10:10:35Z</time>
      </trkpt>
      <trkpt lat="43.2849" lon="6.36119">
        <ele>580.1015625</ele>
        <time>2012-03-04T10:10:50Z</time>
      </trkpt>
      <trkpt lat="43.28494" lon="6.36107">
        <ele>580.09375</ele>
        <time>2012-03-04T10:10:58Z</time>
      </trkpt>
      <trkpt lat="43.28479" lon="6.36085">
        <ele>583.015625</ele>
        <time>2012-03-04T10:11:15Z</time>
      </trkpt>
      <trkpt lat="43.28451" lon="6.36093">
        <ele>586.703125</ele>
        <time>2012-03-04T10:11:35Z</time>
      </trkpt>
      <trkpt lat="43.28437" lon="6.36088">
        <ele>587.3125</ele>
        <time>2012-03-04T10:11:45Z</time>
      </trkpt>
      <trkpt lat="43.28415" lon="6.36059">
        <ele>589.6875</ele>
        <time>2012-03-04T10:12:03Z</time>
      </trkpt>
      <trkpt lat="43.28386" lon="6.36033">
        <ele>592.57421875</ele>
        <time>2012-03-04T10:12:22Z</time>
      </trkpt>
      <trkpt lat="43.2835" lon="6.36019">
        <ele>591.70703125</ele>
        <time>2012-03-04T10:12:41Z</time>
      </trkpt>
      <trkpt lat="43.28304" lon="6.3601">
        <ele>592.22265625</ele>
        <time>2012-03-04T10:13:04Z</time>
      </trkpt>
      <trkpt lat="43.28269" lon="6.36008">
        <ele>595.35546875</ele>
        <time>2012-03-04T10:13:22Z</time>
      </trkpt>
      <trkpt lat="43.28233" lon="6.36012">
        <ele>596.91015625</ele>
        <time>2012-03-04T10:13:40Z</time>
      </trkpt>
      <trkpt lat="43.28206" lon="6.35989">
        <ele>602.6328125</ele>
        <time>2012-03-04T10:13:57Z</time>
      </trkpt>
      <trkpt lat="43.28193" lon="6.35946">
        <ele>609.046875</ele>
        <time>2012-03-04T10:14:14Z</time>
      </trkpt>
      <trkpt lat="43.28175" lon="6.35885">
        <ele>612.69921875</ele>
        <time>2012-03-04T10:14:36Z</time>
      </trkpt>
      <trkpt lat="43.28152" lon="6.35832">
        <ele>615.75390625</ele>
        <time>2012-03-04T10:14:59Z</time>
      </trkpt>
      <trkpt lat="43.28124" lon="6.35812">
        <ele>612.54296875</ele>
        <time>2012-03-04T10:15:18Z</time>
      </trkpt>
      <trkpt lat="43.28097" lon="6.35799">
        <ele>611.6328125</ele>
        <time>2012-03-04T10:15:37Z</time>
      </trkpt>
      <trkpt lat="43.2807" lon="6.35787">
        <ele>612.05078125</ele>
        <time>2012-03-04T10:15:53Z</time>
      </trkpt>
      <trkpt lat="43.28053" lon="6.35772">
        <ele>614.51953125</ele>
        <time>2012-03-04T10:16:11Z</time>
      </trkpt>
      <trkpt lat="43.28054" lon="6.35771">
        <ele>614.66796875</ele>
        <time>2012-03-04T10:16:43Z</time>
      </trkpt>
      <trkpt lat="43.28054" lon="6.35772">
        <ele>614.64453125</ele>
        <time>2012-03-04T10:17:43Z</time>
      </trkpt>
      <trkpt lat="43.28054" lon="6.3577">
        <ele>614.921875</ele>
        <time>2012-03-04T10:20:09Z</time>
      </trkpt>
      <trkpt lat="43.28048" lon="6.35731">
        <ele>623.765625</ele>
        <time>2012-03-04T10:20:29Z</time>
      </trkpt>
      <trkpt lat="43.2804" lon="6.35674">
        <ele>631.75390625</ele>
        <time>2012-03-04T10:20:52Z</time>
      </trkpt>
      <trkpt lat="43.2803" lon="6.35647">
        <ele>633.09375</ele>
        <time>2012-03-04T10:21:03Z</time>
      </trkpt>
      <trkpt lat="43.27998" lon="6.35639">
        <ele>626.77734375</ele>
        <time>2012-03-04T10:21:22Z</time>
      </trkpt>
      <trkpt lat="43.27966" lon="6.35623">
        <ele>626.0078125</ele>
        <time>2012-03-04T10:21:44Z</time>
      </trkpt>
      <trkpt lat="43.27939" lon="6.35588">
        <ele>633.0234375</ele>
        <time>2012-03-04T10:22:04Z</time>
      </trkpt>
      <trkpt lat="43.27908" lon="6.35581">
        <ele>631.35546875</ele>
        <time>2012-03-04T10:22:21Z</time>
      </trkpt>
      <trkpt lat="43.27862" lon="6.35571">
        <ele>631.609375</ele>
        <time>2012-03-04T10:22:44Z</time>
      </trkpt>
      <trkpt lat="43.27821" lon="6.35551">
        <ele>636.05859375</ele>
        <time>2012-03-04T10:23:06Z</time>
      </trkpt>
      <trkpt lat="43.27841" lon="6.35497">
        <ele>641.03125</ele>
        <time>2012-03-04T10:23:20Z</time>
      </trkpt>
      <trkpt lat="43.27844" lon="6.35492">
        <ele>641.69140625</ele>
        <time>2012-03-04T10:23:21Z</time>
      </trkpt>
      <trkpt lat="43.27866" lon="6.35392">
        <ele>649.41015625</ele>
        <time>2012-03-04T10:23:34Z</time>
      </trkpt>
      <trkpt lat="43.27871" lon="6.35358">
        <ele>650.96484375</ele>
        <time>2012-03-04T10:23:38Z</time>
      </trkpt>
      <trkpt lat="43.27883" lon="6.35306">
        <ele>652.0625</ele>
        <time>2012-03-04T10:23:44Z</time>
      </trkpt>
      <trkpt lat="43.27886" lon="6.35296">
        <ele>652.328125</ele>
        <time>2012-03-04T10:23:45Z</time>
      </trkpt>
      <trkpt lat="43.27887" lon="6.35287">
        <ele>652.37109375</ele>
        <time>2012-03-04T10:23:46Z</time>
      </trkpt>
      <trkpt lat="43.27888" lon="6.35247">
        <ele>647.21875</ele>
        <time>2012-03-04T10:23:50Z</time>
      </trkpt>
      <trkpt lat="43.27884" lon="6.35228">
        <ele>643.0234375</ele>
        <time>2012-03-04T10:23:52Z</time>
      </trkpt>
      <trkpt lat="43.27889" lon="6.3519">
        <ele>639.5390625</ele>
        <time>2012-03-04T10:23:56Z</time>
      </trkpt>
      <trkpt lat="43.27898" lon="6.35164">
        <ele>638.37109375</ele>
        <time>2012-03-04T10:23:59Z</time>
      </trkpt>
      <trkpt lat="43.27917" lon="6.35114">
        <ele>632.80078125</ele>
        <time>2012-03-04T10:24:05Z</time>
      </trkpt>
      <trkpt lat="43.27969" lon="6.35059">
        <ele>627.609375</ele>
        <time>2012-03-04T10:24:15Z</time>
      </trkpt>
      <trkpt lat="43.27991" lon="6.34993">
        <ele>620.92578125</ele>
        <time>2012-03-04T10:24:23Z</time>
      </trkpt>
      <trkpt lat="43.27989" lon="6.34945">
        <ele>618.97265625</ele>
        <time>2012-03-04T10:24:28Z</time>
      </trkpt>
      <trkpt lat="43.27988" lon="6.34881">
        <ele>616.9609375</ele>
        <time>2012-03-04T10:24:35Z</time>
      </trkpt>
      <trkpt lat="43.28002" lon="6.3485">
        <ele>616.01953125</ele>
        <time>2012-03-04T10:24:40Z</time>
      </trkpt>
      <trkpt lat="43.28036" lon="6.34825">
        <ele>610.625</ele>
        <time>2012-03-04T10:24:48Z</time>
      </trkpt>
      <trkpt lat="43.28039" lon="6.34816">
        <ele>609.640625</ele>
        <time>2012-03-04T10:24:55Z</time>
      </trkpt>
      <trkpt lat="43.28035" lon="6.34816">
        <ele>610.74609375</ele>
        <time>2012-03-04T10:25:08Z</time>
      </trkpt>
      <trkpt lat="43.2805" lon="6.3481">
        <ele>606.09765625</ele>
        <time>2012-03-04T10:25:17Z</time>
      </trkpt>
      <trkpt lat="43.28075" lon="6.34769">
        <ele>600.0234375</ele>
        <time>2012-03-04T10:25:31Z</time>
      </trkpt>
      <trkpt lat="43.28088" lon="6.34743">
        <ele>599.37890625</ele>
        <time>2012-03-04T10:25:37Z</time>
      </trkpt>
      <trkpt lat="43.28109" lon="6.34714">
        <ele>595.18359375</ele>
        <time>2012-03-04T10:25:43Z</time>
      </trkpt>
      <trkpt lat="43.28134" lon="6.3469">
        <ele>591.7734375</ele>
        <time>2012-03-04T10:25:49Z</time>
      </trkpt>
      <trkpt lat="43.28155" lon="6.34672">
        <ele>589.4765625</ele>
        <time>2012-03-04T10:25:54Z</time>
      </trkpt>
      <trkpt lat="43.28175" lon="6.3461">
        <ele>588.3828125</ele>
        <time>2012-03-04T10:26:02Z</time>
      </trkpt>
      <trkpt lat="43.28173" lon="6.34601">
        <ele>589.18359375</ele>
        <time>2012-03-04T10:26:03Z</time>
      </trkpt>
      <trkpt lat="43.28169" lon="6.34585">
        <ele>591.48828125</ele>
        <time>2012-03-04T10:26:05Z</time>
      </trkpt>
      <trkpt lat="43.28177" lon="6.34511">
        <ele>594.1640625</ele>
        <time>2012-03-04T10:26:14Z</time>
      </trkpt>
      <trkpt lat="43.28182" lon="6.34505">
        <ele>593.62890625</ele>
        <time>2012-03-04T10:26:15Z</time>
      </trkpt>
      <trkpt lat="43.28223" lon="6.34462">
        <ele>587.42578125</ele>
        <time>2012-03-04T10:26:22Z</time>
      </trkpt>
      <trkpt lat="43.28238" lon="6.34389">
        <ele>587.1875</ele>
        <time>2012-03-04T10:26:30Z</time>
      </trkpt>
      <trkpt lat="43.28227" lon="6.34361">
        <ele>591.265625</ele>
        <time>2012-03-04T10:26:33Z</time>
      </trkpt>
      <trkpt lat="43.28163" lon="6.34258">
        <ele>593.04296875</ele>
        <time>2012-03-04T10:26:47Z</time>
      </trkpt>
      <trkpt lat="43.28152" lon="6.34237">
        <ele>593.875</ele>
        <time>2012-03-04T10:26:50Z</time>
      </trkpt>
      <trkpt lat="43.28151" lon="6.34203">
        <ele>589.76171875</ele>
        <time>2012-03-04T10:26:54Z</time>
      </trkpt>
      <trkpt lat="43.28159" lon="6.34174">
        <ele>583.82421875</ele>
        <time>2012-03-04T10:26:57Z</time>
      </trkpt>
      <trkpt lat="43.28155" lon="6.34129">
        <ele>585.328125</ele>
        <time>2012-03-04T10:27:01Z</time>
      </trkpt>
      <trkpt lat="43.28145" lon="6.34092">
        <ele>588.11328125</ele>
        <time>2012-03-04T10:27:05Z</time>
      </trkpt>
      <trkpt lat="43.28141" lon="6.34058">
        <ele>589.66796875</ele>
        <time>2012-03-04T10:27:09Z</time>
      </trkpt>
      <trkpt lat="43.28145" lon="6.34035">
        <ele>588.05078125</ele>
        <time>2012-03-04T10:27:12Z</time>
      </trkpt>
      <trkpt lat="43.28162" lon="6.33989">
        <ele>579.62890625</ele>
        <time>2012-03-04T10:27:18Z</time>
      </trkpt>
      <trkpt lat="43.28168" lon="6.33951">
        <ele>576.21484375</ele>
        <time>2012-03-04T10:27:22Z</time>
      </trkpt>
      <trkpt lat="43.28173" lon="6.33912">
        <ele>573.953125</ele>
        <time>2012-03-04T10:27:25Z</time>
      </trkpt>
      <trkpt lat="43.28203" lon="6.33864">
        <ele>570.73828125</ele>
        <time>2012-03-04T10:27:32Z</time>
      </trkpt>
      <trkpt lat="43.28218" lon="6.33863">
        <ele>569.05859375</ele>
        <time>2012-03-04T10:27:34Z</time>
      </trkpt>
      <trkpt lat="43.28252" lon="6.33867">
        <ele>564.29296875</ele>
        <time>2012-03-04T10:27:38Z</time>
      </trkpt>
      <trkpt lat="43.28286" lon="6.33871">
        <ele>556.7578125</ele>
        <time>2012-03-04T10:27:42Z</time>
      </trkpt>
      <trkpt lat="43.28311" lon="6.33844">
        <ele>556.23828125</ele>
        <time>2012-03-04T10:27:47Z</time>
      </trkpt>
      <trkpt lat="43.28326" lon="6.33747">
        <ele>552.80078125</ele>
        <time>2012-03-04T10:27:56Z</time>
      </trkpt>
      <trkpt lat="43.28328" lon="6.33725">
        <ele>552.453125</ele>
        <time>2012-03-04T10:27:58Z</time>
      </trkpt>
      <trkpt lat="43.28311" lon="6.33671">
        <ele>561.54296875</ele>
        <time>2012-03-04T10:28:04Z</time>
      </trkpt>
      <trkpt lat="43.28292" lon="6.33652">
        <ele>565.015625</ele>
        <time>2012-03-04T10:28:07Z</time>
      </trkpt>
      <trkpt lat="43.28244" lon="6.33603">
        <ele>566.6015625</ele>
        <time>2012-03-04T10:28:15Z</time>
      </trkpt>
      <trkpt lat="43.28237" lon="6.33565">
        <ele>560.80078125</ele>
        <time>2012-03-04T10:28:20Z</time>
      </trkpt>
      <trkpt lat="43.28242" lon="6.33548">
        <ele>556.59375</ele>
        <time>2012-03-04T10:28:22Z</time>
      </trkpt>
      <trkpt lat="43.28241" lon="6.33498">
        <ele>553.04296875</ele>
        <time>2012-03-04T10:28:27Z</time>
      </trkpt>
      <trkpt lat="43.28233" lon="6.33466">
        <ele>554.91015625</ele>
        <time>2012-03-04T10:28:30Z</time>
      </trkpt>
      <trkpt lat="43.28232" lon="6.33425">
        <ele>552.3828125</ele>
        <time>2012-03-04T10:28:34Z</time>
      </trkpt>
      <trkpt lat="43.28235" lon="6.33403">
        <ele>551.02734375</ele>
        <time>2012-03-04T10:28:36Z</time>
      </trkpt>
      <trkpt lat="43.28243" lon="6.33371">
        <ele>548.83984375</ele>
        <time>2012-03-04T10:28:39Z</time>
      </trkpt>
      <trkpt lat="43.28262" lon="6.33333">
        <ele>546.66796875</ele>
        <time>2012-03-04T10:28:43Z</time>
      </trkpt>
      <trkpt lat="43.28321" lon="6.33299">
        <ele>537.73828125</ele>
        <time>2012-03-04T10:29:03Z</time>
      </trkpt>
      <trkpt lat="43.28319" lon="6.33296">
        <ele>539.34765625</ele>
        <time>2012-03-04T10:30:22Z</time>
      </trkpt>
      <trkpt lat="43.28335" lon="6.33291">
        <ele>535.74609375</ele>
        <time>2012-03-04T10:30:47Z</time>
      </trkpt>
      <trkpt lat="43.28351" lon="6.33281">
        <ele>533.453125</ele>
        <time>2012-03-04T10:30:52Z</time>
      </trkpt>
      <trkpt lat="43.2836" lon="6.33252">
        <ele>534.6015625</ele>
        <time>2012-03-04T10:30:57Z</time>
      </trkpt>
      <trkpt lat="43.28365" lon="6.33192">
        <ele>535.15625</ele>
        <time>2012-03-04T10:31:04Z</time>
      </trkpt>
      <trkpt lat="43.28395" lon="6.33143">
        <ele>532.59765625</ele>
        <time>2012-03-04T10:31:11Z</time>
      </trkpt>
      <trkpt lat="43.28482" lon="6.33122">
        <ele>528.609375</ele>
        <time>2012-03-04T10:31:23Z</time>
      </trkpt>
      <trkpt lat="43.28553" lon="6.33117">
        <ele>525.78125</ele>
        <time>2012-03-04T10:31:33Z</time>
      </trkpt>
      <trkpt lat="43.28567" lon="6.33115">
        <ele>523.80859375</ele>
        <time>2012-03-04T10:31:35Z</time>
      </trkpt>
      <trkpt lat="43.2858" lon="6.33111">
        <ele>521.91015625</ele>
        <time>2012-03-04T10:31:37Z</time>
      </trkpt>
      <trkpt lat="43.28603" lon="6.33072">
        <ele>519.6171875</ele>
        <time>2012-03-04T10:31:43Z</time>
      </trkpt>
      <trkpt lat="43.28604" lon="6.33043">
        <ele>520.6015625</ele>
        <time>2012-03-04T10:31:46Z</time>
      </trkpt>
      <trkpt lat="43.28603" lon="6.33017">
        <ele>521.58984375</ele>
        <time>2012-03-04T10:31:49Z</time>
      </trkpt>
      <trkpt lat="43.28594" lon="6.32959">
        <ele>521.6171875</ele>
        <time>2012-03-04T10:31:56Z</time>
      </trkpt>
      <trkpt lat="43.28585" lon="6.32906">
        <ele>520.43359375</ele>
        <time>2012-03-04T10:32:02Z</time>
      </trkpt>
      <trkpt lat="43.28581" lon="6.32887">
        <ele>520.17578125</ele>
        <time>2012-03-04T10:32:04Z</time>
      </trkpt>
      <trkpt lat="43.28579" lon="6.32869">
        <ele>519.76171875</ele>
        <time>2012-03-04T10:32:06Z</time>
      </trkpt>
      <trkpt lat="43.28594" lon="6.32828">
        <ele>512.75390625</ele>
        <time>2012-03-04T10:32:11Z</time>
      </trkpt>
      <trkpt lat="43.2861" lon="6.32808">
        <ele>508.95703125</ele>
        <time>2012-03-04T10:32:14Z</time>
      </trkpt>
      <trkpt lat="43.2863" lon="6.32782">
        <ele>507.5390625</ele>
        <time>2012-03-04T10:32:21Z</time>
      </trkpt>
      <trkpt lat="43.28624" lon="6.3277">
        <ele>510.71875</ele>
        <time>2012-03-04T10:32:26Z</time>
      </trkpt>
      <trkpt lat="43.28587" lon="6.32771">
        <ele>517.94140625</ele>
        <time>2012-03-04T10:32:42Z</time>
      </trkpt>
      <trkpt lat="43.28531" lon="6.3277">
        <ele>527.8828125</ele>
        <time>2012-03-04T10:33:03Z</time>
      </trkpt>
      <trkpt lat="43.28495" lon="6.32747">
        <ele>528.578125</ele>
        <time>2012-03-04T10:33:19Z</time>
      </trkpt>
      <trkpt lat="43.28458" lon="6.32723">
        <ele>528.94140625</ele>
        <time>2012-03-04T10:33:36Z</time>
      </trkpt>
      <trkpt lat="43.28426" lon="6.32715">
        <ele>533.76171875</ele>
        <time>2012-03-04T10:33:50Z</time>
      </trkpt>
      <trkpt lat="43.28411" lon="6.32711">
        <ele>535.75390625</ele>
        <time>2012-03-04T10:33:57Z</time>
      </trkpt>
      <trkpt lat="43.28383" lon="6.327">
        <ele>536.83203125</ele>
        <time>2012-03-04T10:34:09Z</time>
      </trkpt>
      <trkpt lat="43.28381" lon="6.32699">
        <ele>536.6015625</ele>
        <time>2012-03-04T10:34:10Z</time>
      </trkpt>
      <trkpt lat="43.28365" lon="6.32685">
        <ele>535.0078125</ele>
        <time>2012-03-04T10:34:18Z</time>
      </trkpt>
      <trkpt lat="43.28327" lon="6.32646">
        <ele>530.6875</ele>
        <time>2012-03-04T10:34:39Z</time>
      </trkpt>
      <trkpt lat="43.28304" lon="6.32587">
        <ele>529.79296875</ele>
        <time>2012-03-04T10:34:57Z</time>
      </trkpt>
      <trkpt lat="43.28296" lon="6.32544">
        <ele>529.703125</ele>
        <time>2012-03-04T10:35:12Z</time>
      </trkpt>
      <trkpt lat="43.28294" lon="6.32541">
        <ele>529.80078125</ele>
        <time>2012-03-04T10:35:31Z</time>
      </trkpt>
      <trkpt lat="43.28295" lon="6.32542">
        <ele>529.7578125</ele>
        <time>2012-03-04T10:36:21Z</time>
      </trkpt>
      <trkpt lat="43.28297" lon="6.32546">
        <ele>529.6875</ele>
        <time>2012-03-04T10:36:26Z</time>
      </trkpt>
      <trkpt lat="43.28296" lon="6.32549">
        <ele>529.671875</ele>
        <time>2012-03-04T10:36:50Z</time>
      </trkpt>
      <trkpt lat="43.28296" lon="6.32552">
        <ele>529.6484375</ele>
        <time>2012-03-04T10:37:43Z</time>
      </trkpt>
      <trkpt lat="43.28297" lon="6.32548">
        <ele>529.671875</ele>
        <time>2012-03-04T10:38:42Z</time>
      </trkpt>
      <trkpt lat="43.28297" lon="6.32548">
        <ele>529.671875</ele>
        <time>2012-03-04T10:38:43Z</time>
      </trkpt>
      <trkpt lat="43.28296" lon="6.32555">
        <ele>529.625</ele>
        <time>2012-03-04T10:40:37Z</time>
      </trkpt>
      <trkpt lat="43.28296" lon="6.32554">
        <ele>529.640625</ele>
        <time>2012-03-04T10:40:41Z</time>
      </trkpt>
      <trkpt lat="43.28303" lon="6.32548">
        <ele>529.640625</ele>
        <time>2012-03-04T10:40:47Z</time>
      </trkpt>
      <trkpt lat="43.28304" lon="6.32511">
        <ele>529.31640625</ele>
        <time>2012-03-04T10:41:00Z</time>
      </trkpt>
      <trkpt lat="43.28306" lon="6.32488">
        <ele>529.21875</ele>
        <time>2012-03-04T10:41:09Z</time>
      </trkpt>
      <trkpt lat="43.28308" lon="6.32462">
        <ele>528.8671875</ele>
        <time>2012-03-04T10:41:20Z</time>
      </trkpt>
      <trkpt lat="43.28315" lon="6.324">
        <ele>524.2421875</ele>
        <time>2012-03-04T10:41:35Z</time>
      </trkpt>
      <trkpt lat="43.28318" lon="6.3238">
        <ele>522.921875</ele>
        <time>2012-03-04T10:41:39Z</time>
      </trkpt>
      <trkpt lat="43.28319" lon="6.3236">
        <ele>522.6953125</ele>
        <time>2012-03-04T10:41:43Z</time>
      </trkpt>
      <trkpt lat="43.28313" lon="6.32329">
        <ele>525.40234375</ele>
        <time>2012-03-04T10:41:50Z</time>
      </trkpt>
      <trkpt lat="43.28309" lon="6.32276">
        <ele>527</ele>
        <time>2012-03-04T10:42:01Z</time>
      </trkpt>
      <trkpt lat="43.28299" lon="6.32229">
        <ele>527.09765625</ele>
        <time>2012-03-04T10:42:14Z</time>
      </trkpt>
      <trkpt lat="43.28293" lon="6.32214">
        <ele>526.765625</ele>
        <time>2012-03-04T10:42:18Z</time>
      </trkpt>
      <trkpt lat="43.28282" lon="6.32147">
        <ele>525.5390625</ele>
        <time>2012-03-04T10:42:34Z</time>
      </trkpt>
      <trkpt lat="43.28278" lon="6.32108">
        <ele>528.984375</ele>
        <time>2012-03-04T10:42:49Z</time>
      </trkpt>
      <trkpt lat="43.2827" lon="6.32067">
        <ele>536.27734375</ele>
        <time>2012-03-04T10:43:08Z</time>
      </trkpt>
      <trkpt lat="43.28254" lon="6.32027">
        <ele>547.9765625</ele>
        <time>2012-03-04T10:43:32Z</time>
      </trkpt>
      <trkpt lat="43.28249" lon="6.32014">
        <ele>550.52734375</ele>
        <time>2012-03-04T10:43:40Z</time>
      </trkpt>
      <trkpt lat="43.28252" lon="6.31979">
        <ele>554.90234375</ele>
        <time>2012-03-04T10:44:01Z</time>
      </trkpt>
      <trkpt lat="43.28284" lon="6.31944">
        <ele>554.59375</ele>
        <time>2012-03-04T10:44:18Z</time>
      </trkpt>
      <trkpt lat="43.28317" lon="6.31921">
        <ele>551.25</ele>
        <time>2012-03-04T10:44:32Z</time>
      </trkpt>
      <trkpt lat="43.28348" lon="6.31881">
        <ele>544.86328125</ele>
        <time>2012-03-04T10:44:45Z</time>
      </trkpt>
      <trkpt lat="43.28367" lon="6.31835">
        <ele>543.5703125</ele>
        <time>2012-03-04T10:44:57Z</time>
      </trkpt>
      <trkpt lat="43.28385" lon="6.31778">
        <ele>548.60546875</ele>
        <time>2012-03-04T10:45:15Z</time>
      </trkpt>
      <trkpt lat="43.28393" lon="6.31746">
        <ele>556.75</ele>
        <time>2012-03-04T10:45:31Z</time>
      </trkpt>
      <trkpt lat="43.28412" lon="6.317">
        <ele>569.27734375</ele>
        <time>2012-03-04T10:45:56Z</time>
      </trkpt>
      <trkpt lat="43.28424" lon="6.31661">
        <ele>578.55859375</ele>
        <time>2012-03-04T10:46:16Z</time>
      </trkpt>
      <trkpt lat="43.28428" lon="6.31604">
        <ele>585.30859375</ele>
        <time>2012-03-04T10:46:40Z</time>
      </trkpt>
      <trkpt lat="43.2843" lon="6.31545">
        <ele>587.66796875</ele>
        <time>2012-03-04T10:47:00Z</time>
      </trkpt>
      <trkpt lat="43.28428" lon="6.31496">
        <ele>586.953125</ele>
        <time>2012-03-04T10:47:20Z</time>
      </trkpt>
      <trkpt lat="43.2844" lon="6.31437">
        <ele>587.7890625</ele>
        <time>2012-03-04T10:47:45Z</time>
      </trkpt>
      <trkpt lat="43.28455" lon="6.31421">
        <ele>590.2734375</ele>
        <time>2012-03-04T10:47:58Z</time>
      </trkpt>
      <trkpt lat="43.28467" lon="6.31416">
        <ele>592.23046875</ele>
        <time>2012-03-04T10:48:07Z</time>
      </trkpt>
      <trkpt lat="43.28472" lon="6.31413">
        <ele>593.04296875</ele>
        <time>2012-03-04T10:48:11Z</time>
      </trkpt>
      <trkpt lat="43.28497" lon="6.31394">
        <ele>597.0234375</ele>
        <time>2012-03-04T10:48:29Z</time>
      </trkpt>
      <trkpt lat="43.28511" lon="6.31362">
        <ele>599.71875</ele>
        <time>2012-03-04T10:48:46Z</time>
      </trkpt>
      <trkpt lat="43.28514" lon="6.31347">
        <ele>599.75390625</ele>
        <time>2012-03-04T10:48:54Z</time>
      </trkpt>
      <trkpt lat="43.28517" lon="6.31336">
        <ele>600.50390625</ele>
        <time>2012-03-04T10:49:00Z</time>
      </trkpt>
      <trkpt lat="43.28522" lon="6.31287">
        <ele>603.60546875</ele>
        <time>2012-03-04T10:49:22Z</time>
      </trkpt>
      <trkpt lat="43.28524" lon="6.31254">
        <ele>605.703125</ele>
        <time>2012-03-04T10:49:38Z</time>
      </trkpt>
      <trkpt lat="43.28531" lon="6.31219">
        <ele>611.0546875</ele>
        <time>2012-03-04T10:49:55Z</time>
      </trkpt>
      <trkpt lat="43.28525" lon="6.31199">
        <ele>609.23046875</ele>
        <time>2012-03-04T10:50:06Z</time>
      </trkpt>
      <trkpt lat="43.28484" lon="6.31194">
        <ele>597.12890625</ele>
        <time>2012-03-04T10:50:29Z</time>
      </trkpt>
      <trkpt lat="43.28452" lon="6.31172">
        <ele>598.3984375</ele>
        <time>2012-03-04T10:50:48Z</time>
      </trkpt>
      <trkpt lat="43.28426" lon="6.3114">
        <ele>604.86328125</ele>
        <time>2012-03-04T10:51:07Z</time>
      </trkpt>
      <trkpt lat="43.28407" lon="6.31116">
        <ele>607.203125</ele>
        <time>2012-03-04T10:51:22Z</time>
      </trkpt>
      <trkpt lat="43.28402" lon="6.31105">
        <ele>608.31640625</ele>
        <time>2012-03-04T10:51:29Z</time>
      </trkpt>
      <trkpt lat="43.28401" lon="6.31104">
        <ele>608.67578125</ele>
        <time>2012-03-04T10:51:30Z</time>
      </trkpt>
      <trkpt lat="43.28401" lon="6.31102">
        <ele>609.1015625</ele>
        <time>2012-03-04T10:51:31Z</time>
      </trkpt>
      <trkpt lat="43.28402" lon="6.31098">
        <ele>610.25390625</ele>
        <time>2012-03-04T10:51:33Z</time>
      </trkpt>
      <trkpt lat="43.28411" lon="6.31092">
        <ele>615</ele>
        <time>2012-03-04T10:51:40Z</time>
      </trkpt>
      <trkpt lat="43.28418" lon="6.31103">
        <ele>614.66015625</ele>
        <time>2012-03-04T10:51:47Z</time>
      </trkpt>
      <trkpt lat="43.28422" lon="6.31114">
        <ele>612.609375</ele>
        <time>2012-03-04T10:51:53Z</time>
      </trkpt>
      <trkpt lat="43.28446" lon="6.31141">
        <ele>608.64453125</ele>
        <time>2012-03-04T10:52:11Z</time>
      </trkpt>
      <trkpt lat="43.2846" lon="6.3115">
        <ele>607.14453125</ele>
        <time>2012-03-04T10:52:21Z</time>
      </trkpt>
      <trkpt lat="43.28491" lon="6.31156">
        <ele>609.4765625</ele>
        <time>2012-03-04T10:52:41Z</time>
      </trkpt>
      <trkpt lat="43.28493" lon="6.31157">
        <ele>609.6875</ele>
        <time>2012-03-04T10:52:44Z</time>
      </trkpt>
      <trkpt lat="43.28502" lon="6.31154">
        <ele>612</ele>
        <time>2012-03-04T10:52:51Z</time>
      </trkpt>
      <trkpt lat="43.28507" lon="6.31152">
        <ele>613.57421875</ele>
        <time>2012-03-04T10:52:55Z</time>
      </trkpt>
      <trkpt lat="43.28533" lon="6.31151">
        <ele>620.16796875</ele>
        <time>2012-03-04T10:53:17Z</time>
      </trkpt>
      <trkpt lat="43.28545" lon="6.31148">
        <ele>624.8125</ele>
        <time>2012-03-04T10:53:27Z</time>
      </trkpt>
      <trkpt lat="43.28547" lon="6.31149">
        <ele>625.39453125</ele>
        <time>2012-03-04T10:53:29Z</time>
      </trkpt>
      <trkpt lat="43.28565" lon="6.31159">
        <ele>632.41796875</ele>
        <time>2012-03-04T10:53:47Z</time>
      </trkpt>
      <trkpt lat="43.28572" lon="6.31167">
        <ele>634.9765625</ele>
        <time>2012-03-04T10:53:54Z</time>
      </trkpt>
      <trkpt lat="43.28573" lon="6.31172">
        <ele>635.00390625</ele>
        <time>2012-03-04T10:53:57Z</time>
      </trkpt>
      <trkpt lat="43.28584" lon="6.31199">
        <ele>638.69921875</ele>
        <time>2012-03-04T10:54:15Z</time>
      </trkpt>
      <trkpt lat="43.28587" lon="6.31214">
        <ele>639.51953125</ele>
        <time>2012-03-04T10:54:24Z</time>
      </trkpt>
      <trkpt lat="43.28593" lon="6.31245">
        <ele>640.44140625</ele>
        <time>2012-03-04T10:54:43Z</time>
      </trkpt>
      <trkpt lat="43.28603" lon="6.31296">
        <ele>640.81640625</ele>
        <time>2012-03-04T10:55:13Z</time>
      </trkpt>
      <trkpt lat="43.28611" lon="6.31322">
        <ele>641.046875</ele>
        <time>2012-03-04T10:55:28Z</time>
      </trkpt>
      <trkpt lat="43.2862" lon="6.31367">
        <ele>638.02734375</ele>
        <time>2012-03-04T10:55:52Z</time>
      </trkpt>
      <trkpt lat="43.28629" lon="6.31413">
        <ele>629.08984375</ele>
        <time>2012-03-04T10:56:17Z</time>
      </trkpt>
      <trkpt lat="43.2864" lon="6.31417">
        <ele>628.24609375</ele>
        <time>2012-03-04T10:56:28Z</time>
      </trkpt>
      <trkpt lat="43.28645" lon="6.3142">
        <ele>626.8203125</ele>
        <time>2012-03-04T10:56:47Z</time>
      </trkpt>
      <trkpt lat="43.28643" lon="6.31421">
        <ele>626.703125</ele>
        <time>2012-03-04T10:58:40Z</time>
      </trkpt>
      <trkpt lat="43.28643" lon="6.31419">
        <ele>627.47265625</ele>
        <time>2012-03-04T11:01:16Z</time>
      </trkpt>
      <trkpt lat="43.2864" lon="6.31416">
        <ele>628.4140625</ele>
        <time>2012-03-04T11:01:18Z</time>
      </trkpt>
      <trkpt lat="43.28639" lon="6.31406">
        <ele>631.7734375</ele>
        <time>2012-03-04T11:01:22Z</time>
      </trkpt>
      <trkpt lat="43.28635" lon="6.31363">
        <ele>641.5625</ele>
        <time>2012-03-04T11:01:43Z</time>
      </trkpt>
      <trkpt lat="43.28634" lon="6.31321">
        <ele>648.33984375</ele>
        <time>2012-03-04T11:02:03Z</time>
      </trkpt>
      <trkpt lat="43.2863" lon="6.3128">
        <ele>652.65625</ele>
        <time>2012-03-04T11:02:24Z</time>
      </trkpt>
      <trkpt lat="43.2863" lon="6.31274">
        <ele>653.2578125</ele>
        <time>2012-03-04T11:02:27Z</time>
      </trkpt>
      <trkpt lat="43.28634" lon="6.31235">
        <ele>659.47265625</ele>
        <time>2012-03-04T11:02:47Z</time>
      </trkpt>
      <trkpt lat="43.28639" lon="6.31193">
        <ele>664.97265625</ele>
        <time>2012-03-04T11:03:09Z</time>
      </trkpt>
      <trkpt lat="43.28639" lon="6.3115">
        <ele>667.84375</ele>
        <time>2012-03-04T11:03:31Z</time>
      </trkpt>
      <trkpt lat="43.28635" lon="6.31109">
        <ele>669.21484375</ele>
        <time>2012-03-04T11:03:52Z</time>
      </trkpt>
      <trkpt lat="43.28627" lon="6.31065">
        <ele>668.8125</ele>
        <time>2012-03-04T11:04:15Z</time>
      </trkpt>
      <trkpt lat="43.28622" lon="6.31052">
        <ele>668.0859375</ele>
        <time>2012-03-04T11:04:23Z</time>
      </trkpt>
      <trkpt lat="43.28621" lon="6.31046">
        <ele>667.96484375</ele>
        <time>2012-03-04T11:04:26Z</time>
      </trkpt>
      <trkpt lat="43.28609" lon="6.31024">
        <ele>666.578125</ele>
        <time>2012-03-04T11:04:41Z</time>
      </trkpt>
      <trkpt lat="43.28596" lon="6.3101">
        <ele>665.58203125</ele>
        <time>2012-03-04T11:04:54Z</time>
      </trkpt>
      <trkpt lat="43.28569" lon="6.30997">
        <ele>665.8046875</ele>
        <time>2012-03-04T11:05:13Z</time>
      </trkpt>
      <trkpt lat="43.28546" lon="6.30988">
        <ele>667.1796875</ele>
        <time>2012-03-04T11:05:32Z</time>
      </trkpt>
      <trkpt lat="43.28529" lon="6.30973">
        <ele>669.578125</ele>
        <time>2012-03-04T11:05:48Z</time>
      </trkpt>
      <trkpt lat="43.28501" lon="6.30948">
        <ele>673.13671875</ele>
        <time>2012-03-04T11:06:12Z</time>
      </trkpt>
      <trkpt lat="43.28475" lon="6.30917">
        <ele>675.52734375</ele>
        <time>2012-03-04T11:06:34Z</time>
      </trkpt>
      <trkpt lat="43.28467" lon="6.30904">
        <ele>676.06640625</ele>
        <time>2012-03-04T11:06:41Z</time>
      </trkpt>
      <trkpt lat="43.28448" lon="6.30858">
        <ele>678.08203125</ele>
        <time>2012-03-04T11:06:56Z</time>
      </trkpt>
      <trkpt lat="43.28417" lon="6.30808">
        <ele>675.875</ele>
        <time>2012-03-04T11:07:08Z</time>
      </trkpt>
      <trkpt lat="43.284" lon="6.30788">
        <ele>675.42578125</ele>
        <time>2012-03-04T11:07:14Z</time>
      </trkpt>
      <trkpt lat="43.28375" lon="6.30751">
        <ele>675.8515625</ele>
        <time>2012-03-04T11:07:26Z</time>
      </trkpt>
      <trkpt lat="43.28338" lon="6.30701">
        <ele>676.59765625</ele>
        <time>2012-03-04T11:07:42Z</time>
      </trkpt>
      <trkpt lat="43.28316" lon="6.3067">
        <ele>676.43359375</ele>
        <time>2012-03-04T11:07:50Z</time>
      </trkpt>
      <trkpt lat="43.28268" lon="6.30601">
        <ele>672.90234375</ele>
        <time>2012-03-04T11:08:05Z</time>
      </trkpt>
      <trkpt lat="43.28249" lon="6.30538">
        <ele>671.3828125</ele>
        <time>2012-03-04T11:08:18Z</time>
      </trkpt>
      <trkpt lat="43.2825" lon="6.3051">
        <ele>669.41796875</ele>
        <time>2012-03-04T11:08:23Z</time>
      </trkpt>
      <trkpt lat="43.2825" lon="6.30477">
        <ele>667.1640625</ele>
        <time>2012-03-04T11:08:28Z</time>
      </trkpt>
      <trkpt lat="43.28243" lon="6.3045">
        <ele>664.95703125</ele>
        <time>2012-03-04T11:08:33Z</time>
      </trkpt>
      <trkpt lat="43.28238" lon="6.30439">
        <ele>664.6640625</ele>
        <time>2012-03-04T11:08:35Z</time>
      </trkpt>
      <trkpt lat="43.28227" lon="6.30394">
        <ele>664.15625</ele>
        <time>2012-03-04T11:08:41Z</time>
      </trkpt>
      <trkpt lat="43.28224" lon="6.3037">
        <ele>663.28125</ele>
        <time>2012-03-04T11:08:44Z</time>
      </trkpt>
      <trkpt lat="43.28223" lon="6.30332">
        <ele>661.140625</ele>
        <time>2012-03-04T11:08:49Z</time>
      </trkpt>
      <trkpt lat="43.28226" lon="6.30309">
        <ele>660.20703125</ele>
        <time>2012-03-04T11:08:52Z</time>
      </trkpt>
      <trkpt lat="43.28225" lon="6.30253">
        <ele>659.67578125</ele>
        <time>2012-03-04T11:08:59Z</time>
      </trkpt>
      <trkpt lat="43.28225" lon="6.30231">
        <ele>659.75</ele>
        <time>2012-03-04T11:09:02Z</time>
      </trkpt>
      <trkpt lat="43.28212" lon="6.30166">
        <ele>661.6328125</ele>
        <time>2012-03-04T11:09:14Z</time>
      </trkpt>
      <trkpt lat="43.28207" lon="6.30146">
        <ele>662.01171875</ele>
        <time>2012-03-04T11:09:19Z</time>
      </trkpt>
      <trkpt lat="43.28192" lon="6.30097">
        <ele>664.20703125</ele>
        <time>2012-03-04T11:09:32Z</time>
      </trkpt>
      <trkpt lat="43.28178" lon="6.30036">
        <ele>666.546875</ele>
        <time>2012-03-04T11:09:49Z</time>
      </trkpt>
      <trkpt lat="43.28174" lon="6.29971">
        <ele>667.984375</ele>
        <time>2012-03-04T11:10:05Z</time>
      </trkpt>
      <trkpt lat="43.28168" lon="6.29907">
        <ele>670.46484375</ele>
        <time>2012-03-04T11:10:19Z</time>
      </trkpt>
      <trkpt lat="43.28143" lon="6.29843">
        <ele>673.62890625</ele>
        <time>2012-03-04T11:10:35Z</time>
      </trkpt>
      <trkpt lat="43.28121" lon="6.29793">
        <ele>678.21875</ele>
        <time>2012-03-04T11:10:49Z</time>
      </trkpt>
      <trkpt lat="43.28093" lon="6.29747">
        <ele>681.57421875</ele>
        <time>2012-03-04T11:11:04Z</time>
      </trkpt>
      <trkpt lat="43.28058" lon="6.29717">
        <ele>681.03125</ele>
        <time>2012-03-04T11:11:19Z</time>
      </trkpt>
      <trkpt lat="43.28003" lon="6.29705">
        <ele>678.0546875</ele>
        <time>2012-03-04T11:11:40Z</time>
      </trkpt>
      <trkpt lat="43.2796" lon="6.29704">
        <ele>678.2578125</ele>
        <time>2012-03-04T11:12:00Z</time>
      </trkpt>
      <trkpt lat="43.27928" lon="6.29709">
        <ele>679.1484375</ele>
        <time>2012-03-04T11:12:17Z</time>
      </trkpt>
      <trkpt lat="43.27907" lon="6.29701">
        <ele>683.64453125</ele>
        <time>2012-03-04T11:12:31Z</time>
      </trkpt>
      <trkpt lat="43.27905" lon="6.29698">
        <ele>684.88671875</ele>
        <time>2012-03-04T11:12:34Z</time>
      </trkpt>
      <trkpt lat="43.27902" lon="6.29667">
        <ele>691.58984375</ele>
        <time>2012-03-04T11:12:54Z</time>
      </trkpt>
      <trkpt lat="43.27905" lon="6.29657">
        <ele>692.875</ele>
        <time>2012-03-04T11:12:59Z</time>
      </trkpt>
      <trkpt lat="43.2793" lon="6.29632">
        <ele>697.69140625</ele>
        <time>2012-03-04T11:13:18Z</time>
      </trkpt>
      <trkpt lat="43.27964" lon="6.29595">
        <ele>705.859375</ele>
        <time>2012-03-04T11:13:41Z</time>
      </trkpt>
      <trkpt lat="43.27978" lon="6.29561">
        <ele>711.68359375</ele>
        <time>2012-03-04T11:13:57Z</time>
      </trkpt>
      <trkpt lat="43.27979" lon="6.29557">
        <ele>712.0078125</ele>
        <time>2012-03-04T11:13:59Z</time>
      </trkpt>
      <trkpt lat="43.28001" lon="6.295">
        <ele>719.58984375</ele>
        <time>2012-03-04T11:14:21Z</time>
      </trkpt>
      <trkpt lat="43.28012" lon="6.2946">
        <ele>722.0078125</ele>
        <time>2012-03-04T11:14:35Z</time>
      </trkpt>
      <trkpt lat="43.28012" lon="6.29413">
        <ele>723.4453125</ele>
        <time>2012-03-04T11:14:49Z</time>
      </trkpt>
      <trkpt lat="43.28005" lon="6.29354">
        <ele>723.5703125</ele>
        <time>2012-03-04T11:15:06Z</time>
      </trkpt>
      <trkpt lat="43.27994" lon="6.29287">
        <ele>724.8828125</ele>
        <time>2012-03-04T11:15:24Z</time>
      </trkpt>
      <trkpt lat="43.27984" lon="6.2922">
        <ele>723.69140625</ele>
        <time>2012-03-04T11:15:44Z</time>
      </trkpt>
      <trkpt lat="43.27991" lon="6.29182">
        <ele>727.01171875</ele>
        <time>2012-03-04T11:16:01Z</time>
      </trkpt>
      <trkpt lat="43.28008" lon="6.29147">
        <ele>732.2890625</ele>
        <time>2012-03-04T11:16:20Z</time>
      </trkpt>
      <trkpt lat="43.28021" lon="6.29101">
        <ele>731.78515625</ele>
        <time>2012-03-04T11:16:41Z</time>
      </trkpt>
      <trkpt lat="43.28024" lon="6.29052">
        <ele>729.44140625</ele>
        <time>2012-03-04T11:17:02Z</time>
      </trkpt>
      <trkpt lat="43.28041" lon="6.29033">
        <ele>731.36328125</ele>
        <time>2012-03-04T11:17:17Z</time>
      </trkpt>
      <trkpt lat="43.28068" lon="6.2905">
        <ele>733.58984375</ele>
        <time>2012-03-04T11:17:34Z</time>
      </trkpt>
      <trkpt lat="43.281" lon="6.29077">
        <ele>735.4140625</ele>
        <time>2012-03-04T11:17:55Z</time>
      </trkpt>
      <trkpt lat="43.28128" lon="6.29098">
        <ele>734.9609375</ele>
        <time>2012-03-04T11:18:13Z</time>
      </trkpt>
      <trkpt lat="43.28159" lon="6.29127">
        <ele>732.2265625</ele>
        <time>2012-03-04T11:18:34Z</time>
      </trkpt>
      <trkpt lat="43.28175" lon="6.29159">
        <ele>732.27734375</ele>
        <time>2012-03-04T11:18:51Z</time>
      </trkpt>
      <trkpt lat="43.28184" lon="6.29197">
        <ele>734.9921875</ele>
        <time>2012-03-04T11:19:09Z</time>
      </trkpt>
      <trkpt lat="43.2818" lon="6.29205">
        <ele>737.4765625</ele>
        <time>2012-03-04T11:19:14Z</time>
      </trkpt>
      <trkpt lat="43.2817" lon="6.29192">
        <ele>739.24609375</ele>
        <time>2012-03-04T11:19:27Z</time>
      </trkpt>
      <trkpt lat="43.28148" lon="6.29167">
        <ele>740.671875</ele>
        <time>2012-03-04T11:19:47Z</time>
      </trkpt>
      <trkpt lat="43.28139" lon="6.29162">
        <ele>741.77734375</ele>
        <time>2012-03-04T11:19:54Z</time>
      </trkpt>
      <trkpt lat="43.28136" lon="6.29163">
        <ele>742.5</ele>
        <time>2012-03-04T11:19:57Z</time>
      </trkpt>
      <trkpt lat="43.28142" lon="6.29178">
        <ele>743.82421875</ele>
        <time>2012-03-04T11:20:08Z</time>
      </trkpt>
      <trkpt lat="43.28142" lon="6.29186">
        <ele>745.1953125</ele>
        <time>2012-03-04T11:20:13Z</time>
      </trkpt>
      <trkpt lat="43.28137" lon="6.29186">
        <ele>746.4609375</ele>
        <time>2012-03-04T11:20:18Z</time>
      </trkpt>
      <trkpt lat="43.28132" lon="6.29183">
        <ele>746.73828125</ele>
        <time>2012-03-04T11:20:22Z</time>
      </trkpt>
      <trkpt lat="43.2811" lon="6.29168">
        <ele>748.21875</ele>
        <time>2012-03-04T11:20:42Z</time>
      </trkpt>
      <trkpt lat="43.28108" lon="6.29168">
        <ele>748.31640625</ele>
        <time>2012-03-04T11:20:43Z</time>
      </trkpt>
      <trkpt lat="43.28107" lon="6.29171">
        <ele>748.828125</ele>
        <time>2012-03-04T11:20:59Z</time>
      </trkpt>
      <trkpt lat="43.28111" lon="6.29198">
        <ele>753.6015625</ele>
        <time>2012-03-04T11:21:14Z</time>
      </trkpt>
      <trkpt lat="43.28114" lon="6.29225">
        <ele>757.4375</ele>
        <time>2012-03-04T11:21:28Z</time>
      </trkpt>
      <trkpt lat="43.28114" lon="6.29227">
        <ele>757.6875</ele>
        <time>2012-03-04T11:21:29Z</time>
      </trkpt>
      <trkpt lat="43.28119" lon="6.29253">
        <ele>759.375</ele>
        <time>2012-03-04T11:21:43Z</time>
      </trkpt>
      <trkpt lat="43.2812" lon="6.29258">
        <ele>759.609375</ele>
        <time>2012-03-04T11:21:46Z</time>
      </trkpt>
      <trkpt lat="43.2812" lon="6.29281">
        <ele>760.67578125</ele>
        <time>2012-03-04T11:21:59Z</time>
      </trkpt>
      <trkpt lat="43.28108" lon="6.29302">
        <ele>762.09765625</ele>
        <time>2012-03-04T11:22:20Z</time>
      </trkpt>
      <trkpt lat="43.28104" lon="6.29306">
        <ele>761.65625</ele>
        <time>2012-03-04T11:22:33Z</time>
      </trkpt>
      <trkpt lat="43.28098" lon="6.29305">
        <ele>760.87890625</ele>
        <time>2012-03-04T11:22:45Z</time>
      </trkpt>
      <trkpt lat="43.28096" lon="6.29305">
        <ele>760.55078125</ele>
        <time>2012-03-04T11:23:00Z</time>
      </trkpt>
      <trkpt lat="43.28096" lon="6.29306">
        <ele>760.64453125</ele>
        <time>2012-03-04T11:33:19Z</time>
      </trkpt>
      <trkpt lat="43.28097" lon="6.29305">
        <ele>760.6953125</ele>
        <time>2012-03-04T11:33:50Z</time>
      </trkpt>
      <trkpt lat="43.281" lon="6.29308">
        <ele>761.09375</ele>
        <time>2012-03-04T11:38:57Z</time>
      </trkpt>
      <trkpt lat="43.28103" lon="6.29308">
        <ele>761.59375</ele>
        <time>2012-03-04T11:39:11Z</time>
      </trkpt>
      <trkpt lat="43.28103" lon="6.29306">
        <ele>761.51171875</ele>
        <time>2012-03-04T11:41:57Z</time>
      </trkpt>
      <trkpt lat="43.28103" lon="6.29306">
        <ele>761.515625</ele>
        <time>2012-03-04T11:43:25Z</time>
      </trkpt>
      <trkpt lat="43.28105" lon="6.29305">
        <ele>761.8203125</ele>
        <time>2012-03-04T11:44:06Z</time>
      </trkpt>
      <trkpt lat="43.2811" lon="6.29306">
        <ele>762.45703125</ele>
        <time>2012-03-04T11:45:47Z</time>
      </trkpt>
      <trkpt lat="43.28116" lon="6.29311">
        <ele>762.48046875</ele>
        <time>2012-03-04T11:45:54Z</time>
      </trkpt>
      <trkpt lat="43.28121" lon="6.29304">
        <ele>761.44921875</ele>
        <time>2012-03-04T11:45:59Z</time>
      </trkpt>
      <trkpt lat="43.28123" lon="6.293">
        <ele>760.984375</ele>
        <time>2012-03-04T11:46:01Z</time>
      </trkpt>
      <trkpt lat="43.28129" lon="6.29298">
        <ele>759.90625</ele>
        <time>2012-03-04T11:46:04Z</time>
      </trkpt>
      <trkpt lat="43.28138" lon="6.293">
        <ele>758.671875</ele>
        <time>2012-03-04T11:46:08Z</time>
      </trkpt>
      <trkpt lat="43.28151" lon="6.29345">
        <ele>759.23046875</ele>
        <time>2012-03-04T11:46:22Z</time>
      </trkpt>
      <trkpt lat="43.28152" lon="6.29351">
        <ele>759.43359375</ele>
        <time>2012-03-04T11:46:24Z</time>
      </trkpt>
      <trkpt lat="43.28166" lon="6.29385">
        <ele>759.734375</ele>
        <time>2012-03-04T11:46:34Z</time>
      </trkpt>
      <trkpt lat="43.28156" lon="6.29418">
        <ele>759.61328125</ele>
        <time>2012-03-04T11:46:46Z</time>
      </trkpt>
      <trkpt lat="43.28159" lon="6.29427">
        <ele>759.375</ele>
        <time>2012-03-04T11:46:52Z</time>
      </trkpt>
      <trkpt lat="43.28169" lon="6.29457">
        <ele>756.8828125</ele>
        <time>2012-03-04T11:47:03Z</time>
      </trkpt>
      <trkpt lat="43.28167" lon="6.29494">
        <ele>751.12890625</ele>
        <time>2012-03-04T11:47:13Z</time>
      </trkpt>
      <trkpt lat="43.28172" lon="6.29527">
        <ele>742.81640625</ele>
        <time>2012-03-04T11:47:26Z</time>
      </trkpt>
      <trkpt lat="43.28173" lon="6.29528">
        <ele>742.37109375</ele>
        <time>2012-03-04T11:47:27Z</time>
      </trkpt>
      <trkpt lat="43.28172" lon="6.29535">
        <ele>740.83203125</ele>
        <time>2012-03-04T11:47:38Z</time>
      </trkpt>
      <trkpt lat="43.28171" lon="6.29535">
        <ele>740.890625</ele>
        <time>2012-03-04T11:47:41Z</time>
      </trkpt>
      <trkpt lat="43.28166" lon="6.29536">
        <ele>741.3203125</ele>
        <time>2012-03-04T11:47:59Z</time>
      </trkpt>
      <trkpt lat="43.28156" lon="6.29536">
        <ele>742.296875</ele>
        <time>2012-03-04T11:48:10Z</time>
      </trkpt>
      <trkpt lat="43.28147" lon="6.29529">
        <ele>744.44140625</ele>
        <time>2012-03-04T11:48:18Z</time>
      </trkpt>
      <trkpt lat="43.28129" lon="6.29516">
        <ele>747.72265625</ele>
        <time>2012-03-04T11:48:22Z</time>
      </trkpt>
      <trkpt lat="43.28115" lon="6.29503">
        <ele>750.3359375</ele>
        <time>2012-03-04T11:48:25Z</time>
      </trkpt>
      <trkpt lat="43.28101" lon="6.29516">
        <ele>745.12109375</ele>
        <time>2012-03-04T11:48:30Z</time>
      </trkpt>
      <trkpt lat="43.28099" lon="6.2952">
        <ele>744.015625</ele>
        <time>2012-03-04T11:48:31Z</time>
      </trkpt>
      <trkpt lat="43.28096" lon="6.29523">
        <ele>742.6875</ele>
        <time>2012-03-04T11:48:32Z</time>
      </trkpt>
      <trkpt lat="43.28088" lon="6.29531">
        <ele>739.015625</ele>
        <time>2012-03-04T11:48:36Z</time>
      </trkpt>
      <trkpt lat="43.28082" lon="6.29536">
        <ele>736.69140625</ele>
        <time>2012-03-04T11:48:40Z</time>
      </trkpt>
      <trkpt lat="43.2807" lon="6.29539">
        <ele>733.86328125</ele>
        <time>2012-03-04T11:48:46Z</time>
      </trkpt>
      <trkpt lat="43.28062" lon="6.29542">
        <ele>731.91796875</ele>
        <time>2012-03-04T11:48:51Z</time>
      </trkpt>
      <trkpt lat="43.28058" lon="6.29545">
        <ele>730.6328125</ele>
        <time>2012-03-04T11:48:54Z</time>
      </trkpt>
      <trkpt lat="43.28054" lon="6.29556">
        <ele>727.359375</ele>
        <time>2012-03-04T11:49:04Z</time>
      </trkpt>
      <trkpt lat="43.28054" lon="6.29559">
        <ele>726.73046875</ele>
        <time>2012-03-04T11:49:52Z</time>
      </trkpt>
      <trkpt lat="43.28055" lon="6.29568">
        <ele>724.73828125</ele>
        <time>2012-03-04T11:49:57Z</time>
      </trkpt>
      <trkpt lat="43.28052" lon="6.29577">
        <ele>722.22265625</ele>
        <time>2012-03-04T11:50:01Z</time>
      </trkpt>
      <trkpt lat="43.28051" lon="6.2958">
        <ele>721.2109375</ele>
        <time>2012-03-04T11:50:04Z</time>
      </trkpt>
      <trkpt lat="43.28048" lon="6.29585">
        <ele>719.81640625</ele>
        <time>2012-03-04T11:50:08Z</time>
      </trkpt>
      <trkpt lat="43.28042" lon="6.29593">
        <ele>717.0234375</ele>
        <time>2012-03-04T11:50:20Z</time>
      </trkpt>
      <trkpt lat="43.28034" lon="6.296">
        <ele>714.2578125</ele>
        <time>2012-03-04T11:50:35Z</time>
      </trkpt>
      <trkpt lat="43.28026" lon="6.29603">
        <ele>712.3125</ele>
        <time>2012-03-04T11:50:41Z</time>
      </trkpt>
      <trkpt lat="43.28019" lon="6.29612">
        <ele>708.9296875</ele>
        <time>2012-03-04T11:50:50Z</time>
      </trkpt>
      <trkpt lat="43.28019" lon="6.29612">
        <ele>708.98828125</ele>
        <time>2012-03-04T11:51:03Z</time>
      </trkpt>
      <trkpt lat="43.28007" lon="6.29614">
        <ele>707.125</ele>
        <time>2012-03-04T11:51:09Z</time>
      </trkpt>
      <trkpt lat="43.27993" lon="6.29621">
        <ele>704.1328125</ele>
        <time>2012-03-04T11:51:15Z</time>
      </trkpt>
      <trkpt lat="43.27974" lon="6.29637">
        <ele>699.58203125</ele>
        <time>2012-03-04T11:51:22Z</time>
      </trkpt>
      <trkpt lat="43.27963" lon="6.29648">
        <ele>696.9140625</ele>
        <time>2012-03-04T11:51:32Z</time>
      </trkpt>
      <trkpt lat="43.27959" lon="6.29652">
        <ele>695.52734375</ele>
        <time>2012-03-04T11:52:07Z</time>
      </trkpt>
      <trkpt lat="43.27947" lon="6.29661">
        <ele>693.2421875</ele>
        <time>2012-03-04T11:52:11Z</time>
      </trkpt>
      <trkpt lat="43.27925" lon="6.29684">
        <ele>687.1796875</ele>
        <time>2012-03-04T11:52:21Z</time>
      </trkpt>
      <trkpt lat="43.27922" lon="6.29688">
        <ele>686.01171875</ele>
        <time>2012-03-04T11:52:24Z</time>
      </trkpt>
      <trkpt lat="43.27921" lon="6.29695">
        <ele>684.0546875</ele>
        <time>2012-03-04T11:52:27Z</time>
      </trkpt>
      <trkpt lat="43.27921" lon="6.29698">
        <ele>683.203125</ele>
        <time>2012-03-04T11:52:29Z</time>
      </trkpt>
      <trkpt lat="43.27925" lon="6.29706">
        <ele>680.12890625</ele>
        <time>2012-03-04T11:52:41Z</time>
      </trkpt>
      <trkpt lat="43.27923" lon="6.29709">
        <ele>679.32421875</ele>
        <time>2012-03-04T11:52:50Z</time>
      </trkpt>
      <trkpt lat="43.27916" lon="6.29708">
        <ele>680.296875</ele>
        <time>2012-03-04T11:52:55Z</time>
      </trkpt>
      <trkpt lat="43.27911" lon="6.29705">
        <ele>681.78125</ele>
        <time>2012-03-04T11:52:58Z</time>
      </trkpt>
      <trkpt lat="43.27908" lon="6.2971">
        <ele>680.56640625</ele>
        <time>2012-03-04T11:53:05Z</time>
      </trkpt>
      <trkpt lat="43.27913" lon="6.2971">
        <ele>679.96484375</ele>
        <time>2012-03-04T11:53:17Z</time>
      </trkpt>
      <trkpt lat="43.27913" lon="6.2971">
        <ele>679.98046875</ele>
        <time>2012-03-04T11:53:42Z</time>
      </trkpt>
      <trkpt lat="43.27909" lon="6.29718">
        <ele>677.38671875</ele>
        <time>2012-03-04T11:53:46Z</time>
      </trkpt>
      <trkpt lat="43.27905" lon="6.29724">
        <ele>675.5078125</ele>
        <time>2012-03-04T11:53:48Z</time>
      </trkpt>
      <trkpt lat="43.27893" lon="6.29741">
        <ele>671.296875</ele>
        <time>2012-03-04T11:53:54Z</time>
      </trkpt>
      <trkpt lat="43.27887" lon="6.29751">
        <ele>669.01171875</ele>
        <time>2012-03-04T11:54:04Z</time>
      </trkpt>
      <trkpt lat="43.27881" lon="6.29757">
        <ele>667.9765625</ele>
        <time>2012-03-04T11:54:08Z</time>
      </trkpt>
      <trkpt lat="43.27876" lon="6.29766">
        <ele>665.8828125</ele>
        <time>2012-03-04T11:54:20Z</time>
      </trkpt>
      <trkpt lat="43.27875" lon="6.29767">
        <ele>665.640625</ele>
        <time>2012-03-04T11:54:26Z</time>
      </trkpt>
      <trkpt lat="43.27873" lon="6.29773">
        <ele>664.33203125</ele>
        <time>2012-03-04T11:54:31Z</time>
      </trkpt>
      <trkpt lat="43.27864" lon="6.29787">
        <ele>661.45703125</ele>
        <time>2012-03-04T11:54:39Z</time>
      </trkpt>
      <trkpt lat="43.27854" lon="6.29804">
        <ele>657.33984375</ele>
        <time>2012-03-04T11:54:46Z</time>
      </trkpt>
      <trkpt lat="43.2785" lon="6.29809">
        <ele>656.37890625</ele>
        <time>2012-03-04T11:54:55Z</time>
      </trkpt>
      <trkpt lat="43.27839" lon="6.29824">
        <ele>653.40234375</ele>
        <time>2012-03-04T11:55:44Z</time>
      </trkpt>
      <trkpt lat="43.2782" lon="6.29846">
        <ele>650.22265625</ele>
        <time>2012-03-04T11:55:51Z</time>
      </trkpt>
      <trkpt lat="43.27794" lon="6.29873">
        <ele>647.10546875</ele>
        <time>2012-03-04T11:56:01Z</time>
      </trkpt>
      <trkpt lat="43.2779" lon="6.29877">
        <ele>646.875</ele>
        <time>2012-03-04T11:56:03Z</time>
      </trkpt>
      <trkpt lat="43.27784" lon="6.29889">
        <ele>644.421875</ele>
        <time>2012-03-04T11:56:07Z</time>
      </trkpt>
      <trkpt lat="43.27779" lon="6.29895">
        <ele>643.765625</ele>
        <time>2012-03-04T11:56:16Z</time>
      </trkpt>
      <trkpt lat="43.27772" lon="6.29912">
        <ele>640.296875</ele>
        <time>2012-03-04T11:57:05Z</time>
      </trkpt>
      <trkpt lat="43.2777" lon="6.29915">
        <ele>639.84765625</ele>
        <time>2012-03-04T11:57:06Z</time>
      </trkpt>
      <trkpt lat="43.27763" lon="6.29938">
        <ele>635.125</ele>
        <time>2012-03-04T11:57:12Z</time>
      </trkpt>
      <trkpt lat="43.27754" lon="6.2997">
        <ele>629.40234375</ele>
        <time>2012-03-04T11:57:19Z</time>
      </trkpt>
      <trkpt lat="43.27753" lon="6.29981">
        <ele>626.5546875</ele>
        <time>2012-03-04T11:57:22Z</time>
      </trkpt>
      <trkpt lat="43.27747" lon="6.29992">
        <ele>625.8125</ele>
        <time>2012-03-04T11:57:25Z</time>
      </trkpt>
      <trkpt lat="43.27736" lon="6.30019">
        <ele>623.140625</ele>
        <time>2012-03-04T11:57:31Z</time>
      </trkpt>
      <trkpt lat="43.27731" lon="6.30033">
        <ele>622.359375</ele>
        <time>2012-03-04T11:57:34Z</time>
      </trkpt>
      <trkpt lat="43.27724" lon="6.30061">
        <ele>618.97265625</ele>
        <time>2012-03-04T11:57:42Z</time>
      </trkpt>
      <trkpt lat="43.2772" lon="6.30067">
        <ele>618.91796875</ele>
        <time>2012-03-04T11:58:11Z</time>
      </trkpt>
      <trkpt lat="43.27716" lon="6.3008">
        <ele>618.3125</ele>
        <time>2012-03-04T11:58:14Z</time>
      </trkpt>
      <trkpt lat="43.27701" lon="6.30102">
        <ele>618.45703125</ele>
        <time>2012-03-04T11:58:21Z</time>
      </trkpt>
      <trkpt lat="43.27699" lon="6.30106">
        <ele>618.3828125</ele>
        <time>2012-03-04T11:58:22Z</time>
      </trkpt>
      <trkpt lat="43.27695" lon="6.30117">
        <ele>616.88671875</ele>
        <time>2012-03-04T11:58:25Z</time>
      </trkpt>
      <trkpt lat="43.27686" lon="6.30133">
        <ele>614.20703125</ele>
        <time>2012-03-04T11:58:33Z</time>
      </trkpt>
      <trkpt lat="43.27684" lon="6.30134">
        <ele>614.13671875</ele>
        <time>2012-03-04T11:59:14Z</time>
      </trkpt>
      <trkpt lat="43.27676" lon="6.30137">
        <ele>615.09375</ele>
        <time>2012-03-04T11:59:18Z</time>
      </trkpt>
      <trkpt lat="43.27667" lon="6.30142">
        <ele>615.65234375</ele>
        <time>2012-03-04T11:59:22Z</time>
      </trkpt>
      <trkpt lat="43.27658" lon="6.30139">
        <ele>617.38671875</ele>
        <time>2012-03-04T11:59:26Z</time>
      </trkpt>
      <trkpt lat="43.27645" lon="6.3014">
        <ele>618.8046875</ele>
        <time>2012-03-04T11:59:31Z</time>
      </trkpt>
      <trkpt lat="43.27632" lon="6.30142">
        <ele>618.7734375</ele>
        <time>2012-03-04T11:59:38Z</time>
      </trkpt>
      <trkpt lat="43.27629" lon="6.30143">
        <ele>618.625</ele>
        <time>2012-03-04T11:59:39Z</time>
      </trkpt>
      <trkpt lat="43.27626" lon="6.30146">
        <ele>618.2578125</ele>
        <time>2012-03-04T11:59:53Z</time>
      </trkpt>
      <trkpt lat="43.27626" lon="6.30146">
        <ele>618.24609375</ele>
        <time>2012-03-04T11:59:56Z</time>
      </trkpt>
      <trkpt lat="43.27608" lon="6.30163">
        <ele>616.3515625</ele>
        <time>2012-03-04T12:00:07Z</time>
      </trkpt>
      <trkpt lat="43.27586" lon="6.30179">
        <ele>615.21484375</ele>
        <time>2012-03-04T12:00:14Z</time>
      </trkpt>
      <trkpt lat="43.27568" lon="6.30187">
        <ele>610.62109375</ele>
        <time>2012-03-04T12:00:22Z</time>
      </trkpt>
      <trkpt lat="43.27565" lon="6.30187">
        <ele>609.94140625</ele>
        <time>2012-03-04T12:00:34Z</time>
      </trkpt>
      <trkpt lat="43.27556" lon="6.30189">
        <ele>607.72265625</ele>
        <time>2012-03-04T12:00:56Z</time>
      </trkpt>
      <trkpt lat="43.27546" lon="6.3019">
        <ele>604.77734375</ele>
        <time>2012-03-04T12:01:06Z</time>
      </trkpt>
      <trkpt lat="43.27543" lon="6.3019">
        <ele>603.87890625</ele>
        <time>2012-03-04T12:01:20Z</time>
      </trkpt>
      <trkpt lat="43.27532" lon="6.30191">
        <ele>600.68359375</ele>
        <time>2012-03-04T12:01:43Z</time>
      </trkpt>
      <trkpt lat="43.27524" lon="6.3019">
        <ele>598.12109375</ele>
        <time>2012-03-04T12:01:47Z</time>
      </trkpt>
      <trkpt lat="43.2751" lon="6.30187">
        <ele>593.66015625</ele>
        <time>2012-03-04T12:01:51Z</time>
      </trkpt>
      <trkpt lat="43.27492" lon="6.30183">
        <ele>588.6484375</ele>
        <time>2012-03-04T12:01:56Z</time>
      </trkpt>
      <trkpt lat="43.27479" lon="6.30182">
        <ele>585.796875</ele>
        <time>2012-03-04T12:01:59Z</time>
      </trkpt>
      <trkpt lat="43.27468" lon="6.30182">
        <ele>582.39453125</ele>
        <time>2012-03-04T12:02:02Z</time>
      </trkpt>
      <trkpt lat="43.27451" lon="6.30179">
        <ele>578.4453125</ele>
        <time>2012-03-04T12:02:06Z</time>
      </trkpt>
      <trkpt lat="43.27437" lon="6.30172">
        <ele>576.953125</ele>
        <time>2012-03-04T12:02:09Z</time>
      </trkpt>
      <trkpt lat="43.27415" lon="6.30163">
        <ele>572.7109375</ele>
        <time>2012-03-04T12:02:13Z</time>
      </trkpt>
      <trkpt lat="43.27402" lon="6.30156">
        <ele>570.25</ele>
        <time>2012-03-04T12:02:16Z</time>
      </trkpt>
      <trkpt lat="43.27379" lon="6.30151">
        <ele>565.45703125</ele>
        <time>2012-03-04T12:02:23Z</time>
      </trkpt>
      <trkpt lat="43.27368" lon="6.30151">
        <ele>562.9296875</ele>
        <time>2012-03-04T12:02:26Z</time>
      </trkpt>
      <trkpt lat="43.27352" lon="6.30153">
        <ele>559.1484375</ele>
        <time>2012-03-04T12:02:29Z</time>
      </trkpt>
      <trkpt lat="43.27313" lon="6.30165">
        <ele>549.07421875</ele>
        <time>2012-03-04T12:02:45Z</time>
      </trkpt>
      <trkpt lat="43.27312" lon="6.30164">
        <ele>549.03515625</ele>
        <time>2012-03-04T12:02:47Z</time>
      </trkpt>
      <trkpt lat="43.27294" lon="6.30168">
        <ele>547.4765625</ele>
        <time>2012-03-04T12:03:48Z</time>
      </trkpt>
      <trkpt lat="43.27289" lon="6.30168">
        <ele>547.5078125</ele>
        <time>2012-03-04T12:03:51Z</time>
      </trkpt>
      <trkpt lat="43.27277" lon="6.30169">
        <ele>547.6015625</ele>
        <time>2012-03-04T12:03:59Z</time>
      </trkpt>
      <trkpt lat="43.2727" lon="6.30169">
        <ele>548.37890625</ele>
        <time>2012-03-04T12:04:04Z</time>
      </trkpt>
      <trkpt lat="43.27259" lon="6.30172">
        <ele>549.12109375</ele>
        <time>2012-03-04T12:04:20Z</time>
      </trkpt>
      <trkpt lat="43.27252" lon="6.30176">
        <ele>549.3125</ele>
        <time>2012-03-04T12:04:33Z</time>
      </trkpt>
      <trkpt lat="43.27245" lon="6.30179">
        <ele>550.4921875</ele>
        <time>2012-03-04T12:04:58Z</time>
      </trkpt>
      <trkpt lat="43.27238" lon="6.30184">
        <ele>551.4375</ele>
        <time>2012-03-04T12:05:14Z</time>
      </trkpt>
      <trkpt lat="43.2723" lon="6.30184">
        <ele>553.23046875</ele>
        <time>2012-03-04T12:05:29Z</time>
      </trkpt>
      <trkpt lat="43.27228" lon="6.30185">
        <ele>553.75</ele>
        <time>2012-03-04T12:05:55Z</time>
      </trkpt>
      <trkpt lat="43.27227" lon="6.30185">
        <ele>554.0078125</ele>
        <time>2012-03-04T12:05:56Z</time>
      </trkpt>
      <trkpt lat="43.27212" lon="6.30188">
        <ele>556.1875</ele>
        <time>2012-03-04T12:06:05Z</time>
      </trkpt>
      <trkpt lat="43.27205" lon="6.30191">
        <ele>556.96875</ele>
        <time>2012-03-04T12:06:08Z</time>
      </trkpt>
      <trkpt lat="43.27177" lon="6.30207">
        <ele>559.984375</ele>
        <time>2012-03-04T12:06:19Z</time>
      </trkpt>
      <trkpt lat="43.27172" lon="6.30207">
        <ele>560.625</ele>
        <time>2012-03-04T12:06:20Z</time>
      </trkpt>
      <trkpt lat="43.27168" lon="6.30207">
        <ele>561.0625</ele>
        <time>2012-03-04T12:06:21Z</time>
      </trkpt>
      <trkpt lat="43.27153" lon="6.30202">
        <ele>560.671875</ele>
        <time>2012-03-04T12:06:25Z</time>
      </trkpt>
      <trkpt lat="43.27141" lon="6.30191">
        <ele>559.0234375</ele>
        <time>2012-03-04T12:06:30Z</time>
      </trkpt>
      <trkpt lat="43.27125" lon="6.30178">
        <ele>555.2265625</ele>
        <time>2012-03-04T12:06:36Z</time>
      </trkpt>
      <trkpt lat="43.27119" lon="6.30173">
        <ele>553.890625</ele>
        <time>2012-03-04T12:06:39Z</time>
      </trkpt>
      <trkpt lat="43.27118" lon="6.30172">
        <ele>553.73828125</ele>
        <time>2012-03-04T12:06:57Z</time>
      </trkpt>
      <trkpt lat="43.27118" lon="6.30172">
        <ele>553.73828125</ele>
        <time>2012-03-04T12:07:03Z</time>
      </trkpt>
      <trkpt lat="43.27108" lon="6.30147">
        <ele>550.5703125</ele>
        <time>2012-03-04T12:07:09Z</time>
      </trkpt>
      <trkpt lat="43.27105" lon="6.30142">
        <ele>549.9140625</ele>
        <time>2012-03-04T12:07:10Z</time>
      </trkpt>
      <trkpt lat="43.27092" lon="6.30126">
        <ele>548.265625</ele>
        <time>2012-03-04T12:07:14Z</time>
      </trkpt>
      <trkpt lat="43.27087" lon="6.30112">
        <ele>547.53125</ele>
        <time>2012-03-04T12:07:17Z</time>
      </trkpt>
      <trkpt lat="43.27084" lon="6.30086">
        <ele>544.26171875</ele>
        <time>2012-03-04T12:07:21Z</time>
      </trkpt>
      <trkpt lat="43.27085" lon="6.30078">
        <ele>543.1640625</ele>
        <time>2012-03-04T12:07:24Z</time>
      </trkpt>
      <trkpt lat="43.27088" lon="6.30073">
        <ele>541.98046875</ele>
        <time>2012-03-04T12:07:26Z</time>
      </trkpt>
      <trkpt lat="43.27089" lon="6.30066">
        <ele>540.6875</ele>
        <time>2012-03-04T12:07:28Z</time>
      </trkpt>
      <trkpt lat="43.27079" lon="6.30059">
        <ele>539.36328125</ele>
        <time>2012-03-04T12:07:34Z</time>
      </trkpt>
      <trkpt lat="43.27075" lon="6.30066">
        <ele>540.1015625</ele>
        <time>2012-03-04T12:07:44Z</time>
      </trkpt>
      <trkpt lat="43.27072" lon="6.30065">
        <ele>539.59765625</ele>
        <time>2012-03-04T12:07:58Z</time>
      </trkpt>
      <trkpt lat="43.27069" lon="6.30045">
        <ele>537.421875</ele>
        <time>2012-03-04T12:08:04Z</time>
      </trkpt>
      <trkpt lat="43.27063" lon="6.30016">
        <ele>534.8671875</ele>
        <time>2012-03-04T12:08:09Z</time>
      </trkpt>
      <trkpt lat="43.27062" lon="6.29994">
        <ele>533.59375</ele>
        <time>2012-03-04T12:08:12Z</time>
      </trkpt>
      <trkpt lat="43.2706" lon="6.29981">
        <ele>533.1171875</ele>
        <time>2012-03-04T12:08:19Z</time>
      </trkpt>
      <trkpt lat="43.27061" lon="6.29986">
        <ele>533.3203125</ele>
        <time>2012-03-04T12:08:33Z</time>
      </trkpt>
      <trkpt lat="43.27061" lon="6.30026">
        <ele>535.6328125</ele>
        <time>2012-03-04T12:08:50Z</time>
      </trkpt>
      <trkpt lat="43.27061" lon="6.30033">
        <ele>536.09375</ele>
        <time>2012-03-04T12:08:53Z</time>
      </trkpt>
      <trkpt lat="43.2706" lon="6.30049">
        <ele>537.30859375</ele>
        <time>2012-03-04T12:09:00Z</time>
      </trkpt>
      <trkpt lat="43.27056" lon="6.30051">
        <ele>537.12109375</ele>
        <time>2012-03-04T12:09:05Z</time>
      </trkpt>
      <trkpt lat="43.27053" lon="6.30036">
        <ele>535.55078125</ele>
        <time>2012-03-04T12:09:11Z</time>
      </trkpt>
      <trkpt lat="43.27049" lon="6.30017">
        <ele>533.58984375</ele>
        <time>2012-03-04T12:09:16Z</time>
      </trkpt>
      <trkpt lat="43.27048" lon="6.30008">
        <ele>532.8125</ele>
        <time>2012-03-04T12:09:18Z</time>
      </trkpt>
      <trkpt lat="43.27045" lon="6.29995">
        <ele>531.80078125</ele>
        <time>2012-03-04T12:09:26Z</time>
      </trkpt>
      <trkpt lat="43.27042" lon="6.29992">
        <ele>531.19140625</ele>
        <time>2012-03-04T12:09:34Z</time>
      </trkpt>
      <trkpt lat="43.2704" lon="6.29988">
        <ele>530.8359375</ele>
        <time>2012-03-04T12:09:46Z</time>
      </trkpt>
      <trkpt lat="43.27036" lon="6.29979">
        <ele>529.85546875</ele>
        <time>2012-03-04T12:09:57Z</time>
      </trkpt>
      <trkpt lat="43.27034" lon="6.29979">
        <ele>529.67578125</ele>
        <time>2012-03-04T12:10:29Z</time>
      </trkpt>
      <trkpt lat="43.27034" lon="6.29979">
        <ele>529.65625</ele>
        <time>2012-03-04T12:10:53Z</time>
      </trkpt>
      <trkpt lat="43.27034" lon="6.29976">
        <ele>529.52734375</ele>
        <time>2012-03-04T12:10:55Z</time>
      </trkpt>
      <trkpt lat="43.2703" lon="6.29968">
        <ele>528.734375</ele>
        <time>2012-03-04T12:10:59Z</time>
      </trkpt>
      <trkpt lat="43.27021" lon="6.29953">
        <ele>524.296875</ele>
        <time>2012-03-04T12:11:06Z</time>
      </trkpt>
      <trkpt lat="43.27017" lon="6.29948">
        <ele>522.34375</ele>
        <time>2012-03-04T12:11:08Z</time>
      </trkpt>
      <trkpt lat="43.27007" lon="6.29929">
        <ele>517.171875</ele>
        <time>2012-03-04T12:11:14Z</time>
      </trkpt>
      <trkpt lat="43.27002" lon="6.2992">
        <ele>514.75390625</ele>
        <time>2012-03-04T12:11:17Z</time>
      </trkpt>
      <trkpt lat="43.26996" lon="6.29911">
        <ele>512.96875</ele>
        <time>2012-03-04T12:11:20Z</time>
      </trkpt>
      <trkpt lat="43.26988" lon="6.29901">
        <ele>510.31640625</ele>
        <time>2012-03-04T12:11:24Z</time>
      </trkpt>
      <trkpt lat="43.26983" lon="6.29891">
        <ele>508.609375</ele>
        <time>2012-03-04T12:11:27Z</time>
      </trkpt>
      <trkpt lat="43.26975" lon="6.29874">
        <ele>506.42578125</ele>
        <time>2012-03-04T12:11:32Z</time>
      </trkpt>
      <trkpt lat="43.26973" lon="6.29871">
        <ele>505.484375</ele>
        <time>2012-03-04T12:11:42Z</time>
      </trkpt>
      <trkpt lat="43.26964" lon="6.29855">
        <ele>502.2265625</ele>
        <time>2012-03-04T12:12:52Z</time>
      </trkpt>
      <trkpt lat="43.26949" lon="6.29836">
        <ele>496.796875</ele>
        <time>2012-03-04T12:12:56Z</time>
      </trkpt>
      <trkpt lat="43.26923" lon="6.29812">
        <ele>490.2734375</ele>
        <time>2012-03-04T12:13:05Z</time>
      </trkpt>
      <trkpt lat="43.26918" lon="6.29807">
        <ele>489.73046875</ele>
        <time>2012-03-04T12:13:23Z</time>
      </trkpt>
      <trkpt lat="43.26907" lon="6.29802">
        <ele>487.1796875</ele>
        <time>2012-03-04T12:13:42Z</time>
      </trkpt>
      <trkpt lat="43.26904" lon="6.29801">
        <ele>486.5546875</ele>
        <time>2012-03-04T12:13:43Z</time>
      </trkpt>
      <trkpt lat="43.26875" lon="6.29782">
        <ele>485.27734375</ele>
        <time>2012-03-04T12:13:56Z</time>
      </trkpt>
      <trkpt lat="43.26848" lon="6.29769">
        <ele>483.10546875</ele>
        <time>2012-03-04T12:14:08Z</time>
      </trkpt>
      <trkpt lat="43.26833" lon="6.29768">
        <ele>479.69921875</ele>
        <time>2012-03-04T12:14:12Z</time>
      </trkpt>
      <trkpt lat="43.26802" lon="6.29758">
        <ele>476.9921875</ele>
        <time>2012-03-04T12:14:20Z</time>
      </trkpt>
      <trkpt lat="43.26793" lon="6.29753">
        <ele>476.3125</ele>
        <time>2012-03-04T12:14:22Z</time>
      </trkpt>
      <trkpt lat="43.26781" lon="6.29745">
        <ele>476.078125</ele>
        <time>2012-03-04T12:14:25Z</time>
      </trkpt>
      <trkpt lat="43.26777" lon="6.29742">
        <ele>475.62890625</ele>
        <time>2012-03-04T12:14:33Z</time>
      </trkpt>
      <trkpt lat="43.26767" lon="6.29734">
        <ele>474.8515625</ele>
        <time>2012-03-04T12:14:44Z</time>
      </trkpt>
      <trkpt lat="43.26766" lon="6.29734">
        <ele>474.47265625</ele>
        <time>2012-03-04T12:15:44Z</time>
      </trkpt>
      <trkpt lat="43.26751" lon="6.29733">
        <ele>469.5078125</ele>
        <time>2012-03-04T12:15:51Z</time>
      </trkpt>
      <trkpt lat="43.26746" lon="6.29733">
        <ele>468.65625</ele>
        <time>2012-03-04T12:15:52Z</time>
      </trkpt>
      <trkpt lat="43.26725" lon="6.2974">
        <ele>461.51953125</ele>
        <time>2012-03-04T12:15:57Z</time>
      </trkpt>
      <trkpt lat="43.26684" lon="6.29741">
        <ele>455.90234375</ele>
        <time>2012-03-04T12:16:06Z</time>
      </trkpt>
      <trkpt lat="43.2668" lon="6.29742">
        <ele>455.41015625</ele>
        <time>2012-03-04T12:16:07Z</time>
      </trkpt>
      <trkpt lat="43.26656" lon="6.29747">
        <ele>452.6953125</ele>
        <time>2012-03-04T12:16:13Z</time>
      </trkpt>
      <trkpt lat="43.26651" lon="6.29747">
        <ele>452.59375</ele>
        <time>2012-03-04T12:16:14Z</time>
      </trkpt>
      <trkpt lat="43.26639" lon="6.29749">
        <ele>452.0859375</ele>
        <time>2012-03-04T12:16:17Z</time>
      </trkpt>
      <trkpt lat="43.26625" lon="6.29747">
        <ele>452.18359375</ele>
        <time>2012-03-04T12:16:20Z</time>
      </trkpt>
      <trkpt lat="43.26607" lon="6.29749">
        <ele>451.30078125</ele>
        <time>2012-03-04T12:16:24Z</time>
      </trkpt>
      <trkpt lat="43.26601" lon="6.29746">
        <ele>451.8203125</ele>
        <time>2012-03-04T12:16:26Z</time>
      </trkpt>
      <trkpt lat="43.26582" lon="6.29737">
        <ele>452.31640625</ele>
        <time>2012-03-04T12:16:37Z</time>
      </trkpt>
      <trkpt lat="43.26574" lon="6.29729">
        <ele>452.203125</ele>
        <time>2012-03-04T12:16:49Z</time>
      </trkpt>
      <trkpt lat="43.26572" lon="6.29728">
        <ele>452.00390625</ele>
        <time>2012-03-04T12:17:04Z</time>
      </trkpt>
      <trkpt lat="43.26565" lon="6.29723">
        <ele>450.98046875</ele>
        <time>2012-03-04T12:17:08Z</time>
      </trkpt>
      <trkpt lat="43.26558" lon="6.29708">
        <ele>449.203125</ele>
        <time>2012-03-04T12:17:14Z</time>
      </trkpt>
      <trkpt lat="43.26553" lon="6.29692">
        <ele>447.25</ele>
        <time>2012-03-04T12:17:19Z</time>
      </trkpt>
      <trkpt lat="43.26547" lon="6.29682">
        <ele>444.83984375</ele>
        <time>2012-03-04T12:17:23Z</time>
      </trkpt>
      <trkpt lat="43.26546" lon="6.2968">
        <ele>444.4453125</ele>
        <time>2012-03-04T12:17:25Z</time>
      </trkpt>
      <trkpt lat="43.26539" lon="6.29671">
        <ele>441.39453125</ele>
        <time>2012-03-04T12:17:39Z</time>
      </trkpt>
      <trkpt lat="43.26537" lon="6.29666">
        <ele>439.9375</ele>
        <time>2012-03-04T12:17:53Z</time>
      </trkpt>
      <trkpt lat="43.26539" lon="6.29669">
        <ele>441.1328125</ele>
        <time>2012-03-04T12:18:11Z</time>
      </trkpt>
      <trkpt lat="43.26533" lon="6.29662">
        <ele>438.15234375</ele>
        <time>2012-03-04T12:18:27Z</time>
      </trkpt>
      <trkpt lat="43.26529" lon="6.29657">
        <ele>435.59375</ele>
        <time>2012-03-04T12:18:41Z</time>
      </trkpt>
      <trkpt lat="43.26525" lon="6.29654">
        <ele>433.6015625</ele>
        <time>2012-03-04T12:18:47Z</time>
      </trkpt>
      <trkpt lat="43.2652" lon="6.29648">
        <ele>430.57421875</ele>
        <time>2012-03-04T12:18:57Z</time>
      </trkpt>
      <trkpt lat="43.26518" lon="6.29646">
        <ele>429.390625</ele>
        <time>2012-03-04T12:18:59Z</time>
      </trkpt>
      <trkpt lat="43.26513" lon="6.29647">
        <ele>427.41015625</ele>
        <time>2012-03-04T12:19:13Z</time>
      </trkpt>
      <trkpt lat="43.26513" lon="6.29648">
        <ele>427.53125</ele>
        <time>2012-03-04T12:19:35Z</time>
      </trkpt>
      <trkpt lat="43.26506" lon="6.29657">
        <ele>426.03125</ele>
        <time>2012-03-04T12:19:46Z</time>
      </trkpt>
      <trkpt lat="43.26498" lon="6.29657">
        <ele>423.3828125</ele>
        <time>2012-03-04T12:19:58Z</time>
      </trkpt>
      <trkpt lat="43.2649" lon="6.29651">
        <ele>419.5390625</ele>
        <time>2012-03-04T12:20:12Z</time>
      </trkpt>
      <trkpt lat="43.26485" lon="6.29649">
        <ele>417.2265625</ele>
        <time>2012-03-04T12:20:28Z</time>
      </trkpt>
      <trkpt lat="43.26478" lon="6.29643">
        <ele>413.71484375</ele>
        <time>2012-03-04T12:20:43Z</time>
      </trkpt>
      <trkpt lat="43.26471" lon="6.29637">
        <ele>410.98828125</ele>
        <time>2012-03-04T12:20:59Z</time>
      </trkpt>
      <trkpt lat="43.2647" lon="6.29634">
        <ele>410.125</ele>
        <time>2012-03-04T12:21:09Z</time>
      </trkpt>
      <trkpt lat="43.26467" lon="6.29626">
        <ele>408.2265625</ele>
        <time>2012-03-04T12:21:19Z</time>
      </trkpt>
      <trkpt lat="43.26467" lon="6.29626">
        <ele>408.01953125</ele>
        <time>2012-03-04T12:21:21Z</time>
      </trkpt>
      <trkpt lat="43.26465" lon="6.29628">
        <ele>407.54296875</ele>
        <time>2012-03-04T12:21:41Z</time>
      </trkpt>
      <trkpt lat="43.26465" lon="6.29628">
        <ele>407.54296875</ele>
        <time>2012-03-04T12:22:12Z</time>
      </trkpt>
      <trkpt lat="43.26462" lon="6.29632">
        <ele>406.88671875</ele>
        <time>2012-03-04T12:22:14Z</time>
      </trkpt>
      <trkpt lat="43.26448" lon="6.29639">
        <ele>403.28515625</ele>
        <time>2012-03-04T12:22:20Z</time>
      </trkpt>
      <trkpt lat="43.26442" lon="6.29641">
        <ele>401.640625</ele>
        <time>2012-03-04T12:22:23Z</time>
      </trkpt>
      <trkpt lat="43.26435" lon="6.29642">
        <ele>399.1015625</ele>
        <time>2012-03-04T12:22:29Z</time>
      </trkpt>
      <trkpt lat="43.26427" lon="6.29638">
        <ele>395.6796875</ele>
        <time>2012-03-04T12:22:46Z</time>
      </trkpt>
      <trkpt lat="43.2642" lon="6.29635">
        <ele>392.66015625</ele>
        <time>2012-03-04T12:22:57Z</time>
      </trkpt>
      <trkpt lat="43.2641" lon="6.29633">
        <ele>388.44921875</ele>
        <time>2012-03-04T12:23:10Z</time>
      </trkpt>
      <trkpt lat="43.26398" lon="6.29635">
        <ele>384.5234375</ele>
        <time>2012-03-04T12:23:15Z</time>
      </trkpt>
      <trkpt lat="43.26388" lon="6.29644">
        <ele>381.4375</ele>
        <time>2012-03-04T12:23:20Z</time>
      </trkpt>
      <trkpt lat="43.26376" lon="6.29652">
        <ele>377.3125</ele>
        <time>2012-03-04T12:23:25Z</time>
      </trkpt>
      <trkpt lat="43.26372" lon="6.29656">
        <ele>376.03515625</ele>
        <time>2012-03-04T12:23:27Z</time>
      </trkpt>
      <trkpt lat="43.26365" lon="6.29666">
        <ele>373.82421875</ele>
        <time>2012-03-04T12:23:36Z</time>
      </trkpt>
      <trkpt lat="43.26358" lon="6.29676">
        <ele>371.4296875</ele>
        <time>2012-03-04T12:26:02Z</time>
      </trkpt>
      <trkpt lat="43.26351" lon="6.29685">
        <ele>368.703125</ele>
        <time>2012-03-04T12:26:06Z</time>
      </trkpt>
      <trkpt lat="43.26343" lon="6.29696">
        <ele>365.12890625</ele>
        <time>2012-03-04T12:26:13Z</time>
      </trkpt>
      <trkpt lat="43.26342" lon="6.29698">
        <ele>364.6796875</ele>
        <time>2012-03-04T12:26:14Z</time>
      </trkpt>
      <trkpt lat="43.26339" lon="6.29701">
        <ele>363.328125</ele>
        <time>2012-03-04T12:26:16Z</time>
      </trkpt>
      <trkpt lat="43.26335" lon="6.29709">
        <ele>361.13671875</ele>
        <time>2012-03-04T12:26:20Z</time>
      </trkpt>
      <trkpt lat="43.26333" lon="6.29716">
        <ele>360.2265625</ele>
        <time>2012-03-04T12:26:34Z</time>
      </trkpt>
      <trkpt lat="43.2633" lon="6.29728">
        <ele>358.66015625</ele>
        <time>2012-03-04T12:27:24Z</time>
      </trkpt>
      <trkpt lat="43.26327" lon="6.29742">
        <ele>356.28125</ele>
        <time>2012-03-04T12:27:28Z</time>
      </trkpt>
      <trkpt lat="43.26318" lon="6.29763">
        <ele>350.62109375</ele>
        <time>2012-03-04T12:27:36Z</time>
      </trkpt>
      <trkpt lat="43.26317" lon="6.29766">
        <ele>349.921875</ele>
        <time>2012-03-04T12:27:37Z</time>
      </trkpt>
      <trkpt lat="43.26309" lon="6.29779">
        <ele>344.7265625</ele>
        <time>2012-03-04T12:27:43Z</time>
      </trkpt>
      <trkpt lat="43.26305" lon="6.29802">
        <ele>340.57421875</ele>
        <time>2012-03-04T12:27:53Z</time>
      </trkpt>
      <trkpt lat="43.26303" lon="6.29807">
        <ele>339.43359375</ele>
        <time>2012-03-04T12:28:38Z</time>
      </trkpt>
      <trkpt lat="43.26301" lon="6.29823">
        <ele>336.70703125</ele>
        <time>2012-03-04T12:28:44Z</time>
      </trkpt>
      <trkpt lat="43.26301" lon="6.29847">
        <ele>332.6015625</ele>
        <time>2012-03-04T12:28:49Z</time>
      </trkpt>
      <trkpt lat="43.26305" lon="6.29872">
        <ele>329.2265625</ele>
        <time>2012-03-04T12:28:54Z</time>
      </trkpt>
      <trkpt lat="43.26306" lon="6.29878">
        <ele>328.75390625</ele>
        <time>2012-03-04T12:28:55Z</time>
      </trkpt>
      <trkpt lat="43.26302" lon="6.29896">
        <ele>325.41796875</ele>
        <time>2012-03-04T12:28:58Z</time>
      </trkpt>
      <trkpt lat="43.26308" lon="6.29929">
        <ele>325.62890625</ele>
        <time>2012-03-04T12:29:04Z</time>
      </trkpt>
      <trkpt lat="43.26307" lon="6.29937">
        <ele>325.5234375</ele>
        <time>2012-03-04T12:29:06Z</time>
      </trkpt>
      <trkpt lat="43.26307" lon="6.2995">
        <ele>325.0703125</ele>
        <time>2012-03-04T12:29:09Z</time>
      </trkpt>
      <trkpt lat="43.26307" lon="6.29966">
        <ele>324.5859375</ele>
        <time>2012-03-04T12:29:18Z</time>
      </trkpt>
      <trkpt lat="43.26304" lon="6.29972">
        <ele>323.046875</ele>
        <time>2012-03-04T12:30:18Z</time>
      </trkpt>
      <trkpt lat="43.26295" lon="6.29986">
        <ele>318.32421875</ele>
        <time>2012-03-04T12:30:23Z</time>
      </trkpt>
      <trkpt lat="43.26284" lon="6.30017">
        <ele>312.69140625</ele>
        <time>2012-03-04T12:30:34Z</time>
      </trkpt>
      <trkpt lat="43.26284" lon="6.30021">
        <ele>312.66015625</ele>
        <time>2012-03-04T12:30:51Z</time>
      </trkpt>
      <trkpt lat="43.26275" lon="6.30048">
        <ele>310.88671875</ele>
        <time>2012-03-04T12:31:05Z</time>
      </trkpt>
      <trkpt lat="43.26274" lon="6.30053">
        <ele>310.85546875</ele>
        <time>2012-03-04T12:31:06Z</time>
      </trkpt>
      <trkpt lat="43.26265" lon="6.30078">
        <ele>309.9296875</ele>
        <time>2012-03-04T12:31:10Z</time>
      </trkpt>
      <trkpt lat="43.26253" lon="6.30094">
        <ele>306.8359375</ele>
        <time>2012-03-04T12:31:13Z</time>
      </trkpt>
      <trkpt lat="43.26249" lon="6.30098">
        <ele>305.66015625</ele>
        <time>2012-03-04T12:31:14Z</time>
      </trkpt>
      <trkpt lat="43.26236" lon="6.30144">
        <ele>298.296875</ele>
        <time>2012-03-04T12:31:23Z</time>
      </trkpt>
      <trkpt lat="43.2624" lon="6.30171">
        <ele>298.41015625</ele>
        <time>2012-03-04T12:31:28Z</time>
      </trkpt>
      <trkpt lat="43.26238" lon="6.30203">
        <ele>297.17578125</ele>
        <time>2012-03-04T12:31:33Z</time>
      </trkpt>
      <trkpt lat="43.26235" lon="6.30224">
        <ele>295.3671875</ele>
        <time>2012-03-04T12:31:36Z</time>
      </trkpt>
      <trkpt lat="43.26224" lon="6.3027">
        <ele>292.18359375</ele>
        <time>2012-03-04T12:31:46Z</time>
      </trkpt>
      <trkpt lat="43.26223" lon="6.30278">
        <ele>292.99609375</ele>
        <time>2012-03-04T12:31:59Z</time>
      </trkpt>
      <trkpt lat="43.26223" lon="6.30278">
        <ele>293.03515625</ele>
        <time>2012-03-04T12:32:10Z</time>
      </trkpt>
      <trkpt lat="43.26214" lon="6.30295">
        <ele>293.109375</ele>
        <time>2012-03-04T12:32:17Z</time>
      </trkpt>
      <trkpt lat="43.26201" lon="6.30325">
        <ele>291.45703125</ele>
        <time>2012-03-04T12:32:26Z</time>
      </trkpt>
      <trkpt lat="43.26202" lon="6.30329">
        <ele>291.8828125</ele>
        <time>2012-03-04T12:32:27Z</time>
      </trkpt>
      <trkpt lat="43.26198" lon="6.30338">
        <ele>291.234375</ele>
        <time>2012-03-04T12:32:37Z</time>
      </trkpt>
      <trkpt lat="43.26192" lon="6.30348">
        <ele>290.41796875</ele>
        <time>2012-03-04T12:33:41Z</time>
      </trkpt>
      <trkpt lat="43.26175" lon="6.3039">
        <ele>287.44921875</ele>
        <time>2012-03-04T12:33:55Z</time>
      </trkpt>
      <trkpt lat="43.26164" lon="6.3041">
        <ele>285.77734375</ele>
        <time>2012-03-04T12:34:01Z</time>
      </trkpt>
      <trkpt lat="43.26144" lon="6.30433">
        <ele>279.01953125</ele>
        <time>2012-03-04T12:34:06Z</time>
      </trkpt>
      <trkpt lat="43.26135" lon="6.30445">
        <ele>275.7265625</ele>
        <time>2012-03-04T12:34:08Z</time>
      </trkpt>
      <trkpt lat="43.261" lon="6.30466">
        <ele>267.55859375</ele>
        <time>2012-03-04T12:34:13Z</time>
      </trkpt>
      <trkpt lat="43.26083" lon="6.30463">
        <ele>265.90234375</ele>
        <time>2012-03-04T12:34:15Z</time>
      </trkpt>
      <trkpt lat="43.26064" lon="6.30457">
        <ele>265.28515625</ele>
        <time>2012-03-04T12:34:17Z</time>
      </trkpt>
      <trkpt lat="43.26045" lon="6.30455">
        <ele>264.72265625</ele>
        <time>2012-03-04T12:34:19Z</time>
      </trkpt>
      <trkpt lat="43.26005" lon="6.30452">
        <ele>263.51171875</ele>
        <time>2012-03-04T12:34:23Z</time>
      </trkpt>
      <trkpt lat="43.25995" lon="6.30452">
        <ele>263.3828125</ele>
        <time>2012-03-04T12:34:24Z</time>
      </trkpt>
      <trkpt lat="43.25938" lon="6.30467">
        <ele>263.44140625</ele>
        <time>2012-03-04T12:34:30Z</time>
      </trkpt>
      <trkpt lat="43.25919" lon="6.30471">
        <ele>262.28125</ele>
        <time>2012-03-04T12:34:32Z</time>
      </trkpt>
      <trkpt lat="43.25893" lon="6.30477">
        <ele>260.1953125</ele>
        <time>2012-03-04T12:34:35Z</time>
      </trkpt>
      <trkpt lat="43.25854" lon="6.30501">
        <ele>259.1484375</ele>
        <time>2012-03-04T12:34:43Z</time>
      </trkpt>
      <trkpt lat="43.25824" lon="6.30527">
        <ele>257.4453125</ele>
        <time>2012-03-04T12:34:59Z</time>
      </trkpt>
      <trkpt lat="43.25818" lon="6.30532">
        <ele>256.36328125</ele>
        <time>2012-03-04T12:35:13Z</time>
      </trkpt>
      <trkpt lat="43.25797" lon="6.30545">
        <ele>256.07421875</ele>
        <time>2012-03-04T12:35:23Z</time>
      </trkpt>
      <trkpt lat="43.25772" lon="6.30564">
        <ele>256.28125</ele>
        <time>2012-03-04T12:35:29Z</time>
      </trkpt>
      <trkpt lat="43.25739" lon="6.30608">
        <ele>258.69140625</ele>
        <time>2012-03-04T12:35:37Z</time>
      </trkpt>
      <trkpt lat="43.25676" lon="6.30659">
        <ele>253.51953125</ele>
        <time>2012-03-04T12:35:49Z</time>
      </trkpt>
      <trkpt lat="43.25658" lon="6.30673">
        <ele>253.45703125</ele>
        <time>2012-03-04T12:35:52Z</time>
      </trkpt>
      <trkpt lat="43.25625" lon="6.30685">
        <ele>251.26171875</ele>
        <time>2012-03-04T12:35:57Z</time>
      </trkpt>
      <trkpt lat="43.25611" lon="6.30685">
        <ele>249.52734375</ele>
        <time>2012-03-04T12:35:59Z</time>
      </trkpt>
      <trkpt lat="43.25579" lon="6.30698">
        <ele>245.6171875</ele>
        <time>2012-03-04T12:36:04Z</time>
      </trkpt>
      <trkpt lat="43.25568" lon="6.30707">
        <ele>244.5546875</ele>
        <time>2012-03-04T12:36:06Z</time>
      </trkpt>
      <trkpt lat="43.25536" lon="6.30734">
        <ele>244.609375</ele>
        <time>2012-03-04T12:36:12Z</time>
      </trkpt>
      <trkpt lat="43.25505" lon="6.30747">
        <ele>244.17578125</ele>
        <time>2012-03-04T12:36:17Z</time>
      </trkpt>
      <trkpt lat="43.25483" lon="6.3075">
        <ele>242.33203125</ele>
        <time>2012-03-04T12:36:20Z</time>
      </trkpt>
      <trkpt lat="43.25428" lon="6.30758">
        <ele>233.8125</ele>
        <time>2012-03-04T12:36:28Z</time>
      </trkpt>
      <trkpt lat="43.25371" lon="6.30821">
        <ele>230.66015625</ele>
        <time>2012-03-04T12:36:38Z</time>
      </trkpt>
      <trkpt lat="43.25342" lon="6.30854">
        <ele>228.5625</ele>
        <time>2012-03-04T12:36:43Z</time>
      </trkpt>
      <trkpt lat="43.25254" lon="6.30935">
        <ele>227.58203125</ele>
        <time>2012-03-04T12:36:58Z</time>
      </trkpt>
      <trkpt lat="43.25174" lon="6.31023">
        <ele>232.8125</ele>
        <time>2012-03-04T12:37:14Z</time>
      </trkpt>
      <trkpt lat="43.25151" lon="6.31034">
        <ele>232.1171875</ele>
        <time>2012-03-04T12:37:19Z</time>
      </trkpt>
      <trkpt lat="43.251" lon="6.31037">
        <ele>226.80859375</ele>
        <time>2012-03-04T12:37:32Z</time>
      </trkpt>
      <trkpt lat="43.25055" lon="6.31041">
        <ele>222.87890625</ele>
        <time>2012-03-04T12:37:41Z</time>
      </trkpt>
      <trkpt lat="43.25028" lon="6.3106">
        <ele>223.0625</ele>
        <time>2012-03-04T12:37:49Z</time>
      </trkpt>
      <trkpt lat="43.24992" lon="6.31116">
        <ele>223.23828125</ele>
        <time>2012-03-04T12:38:00Z</time>
      </trkpt>
      <trkpt lat="43.24954" lon="6.31155">
        <ele>216.07421875</ele>
        <time>2012-03-04T12:38:08Z</time>
      </trkpt>
      <trkpt lat="43.24948" lon="6.31159">
        <ele>214.66015625</ele>
        <time>2012-03-04T12:38:09Z</time>
      </trkpt>
      <trkpt lat="43.24931" lon="6.31166">
        <ele>211.578125</ele>
        <time>2012-03-04T12:38:12Z</time>
      </trkpt>
      <trkpt lat="43.24914" lon="6.31159">
        <ele>208.20703125</ele>
        <time>2012-03-04T12:38:15Z</time>
      </trkpt>
      <trkpt lat="43.24887" lon="6.31162">
        <ele>204.89453125</ele>
        <time>2012-03-04T12:38:20Z</time>
      </trkpt>
      <trkpt lat="43.24835" lon="6.31213">
        <ele>203.73046875</ele>
        <time>2012-03-04T12:38:31Z</time>
      </trkpt>
      <trkpt lat="43.24813" lon="6.31227">
        <ele>201.64453125</ele>
        <time>2012-03-04T12:38:35Z</time>
      </trkpt>
      <trkpt lat="43.2477" lon="6.31246">
        <ele>199.52734375</ele>
        <time>2012-03-04T12:38:44Z</time>
      </trkpt>
      <trkpt lat="43.24755" lon="6.31268">
        <ele>199.578125</ele>
        <time>2012-03-04T12:38:49Z</time>
      </trkpt>
      <trkpt lat="43.24746" lon="6.31293">
        <ele>200.45703125</ele>
        <time>2012-03-04T12:38:54Z</time>
      </trkpt>
      <trkpt lat="43.2473" lon="6.31329">
        <ele>199.8828125</ele>
        <time>2012-03-04T12:39:01Z</time>
      </trkpt>
      <trkpt lat="43.24691" lon="6.314">
        <ele>197.05078125</ele>
        <time>2012-03-04T12:39:17Z</time>
      </trkpt>
      <trkpt lat="43.24662" lon="6.31463">
        <ele>194.65625</ele>
        <time>2012-03-04T12:39:27Z</time>
      </trkpt>
      <trkpt lat="43.24655" lon="6.31478">
        <ele>194.51953125</ele>
        <time>2012-03-04T12:39:29Z</time>
      </trkpt>
      <trkpt lat="43.24599" lon="6.3157">
        <ele>191.93359375</ele>
        <time>2012-03-04T12:39:43Z</time>
      </trkpt>
      <trkpt lat="43.24561" lon="6.31635">
        <ele>191.44140625</ele>
        <time>2012-03-04T12:39:58Z</time>
      </trkpt>
      <trkpt lat="43.24533" lon="6.31678">
        <ele>189.234375</ele>
        <time>2012-03-04T12:40:09Z</time>
      </trkpt>
      <trkpt lat="43.24504" lon="6.31736">
        <ele>190</ele>
        <time>2012-03-04T12:40:25Z</time>
      </trkpt>
      <trkpt lat="43.24485" lon="6.31769">
        <ele>189.0859375</ele>
        <time>2012-03-04T12:40:38Z</time>
      </trkpt>
      <trkpt lat="43.24476" lon="6.31784">
        <ele>187.81640625</ele>
        <time>2012-03-04T12:40:48Z</time>
      </trkpt>
      <trkpt lat="43.24473" lon="6.31787">
        <ele>187.8203125</ele>
        <time>2012-03-04T12:40:51Z</time>
      </trkpt>
      <trkpt lat="43.24463" lon="6.31814">
        <ele>187.19140625</ele>
        <time>2012-03-04T12:41:06Z</time>
      </trkpt>
      <trkpt lat="43.24462" lon="6.3182">
        <ele>186.95703125</ele>
        <time>2012-03-04T12:41:09Z</time>
      </trkpt>
      <trkpt lat="43.24461" lon="6.31828">
        <ele>186.73046875</ele>
        <time>2012-03-04T12:41:13Z</time>
      </trkpt>
      <trkpt lat="43.2446" lon="6.31832">
        <ele>186.578125</ele>
        <time>2012-03-04T12:41:15Z</time>
      </trkpt>
      <trkpt lat="43.24455" lon="6.31861">
        <ele>184.9140625</ele>
        <time>2012-03-04T12:41:29Z</time>
      </trkpt>
      <trkpt lat="43.24442" lon="6.31862">
        <ele>185.80859375</ele>
        <time>2012-03-04T12:41:36Z</time>
      </trkpt>
      <trkpt lat="43.24433" lon="6.31834">
        <ele>189.4609375</ele>
        <time>2012-03-04T12:41:48Z</time>
      </trkpt>
      <trkpt lat="43.24427" lon="6.31805">
        <ele>192.58984375</ele>
        <time>2012-03-04T12:42:10Z</time>
      </trkpt>
      <trkpt lat="43.24424" lon="6.31787">
        <ele>194.24609375</ele>
        <time>2012-03-04T12:42:13Z</time>
      </trkpt>
      <trkpt lat="43.24421" lon="6.31773">
        <ele>195.62109375</ele>
        <time>2012-03-04T12:42:15Z</time>
      </trkpt>
      <trkpt lat="43.24387" lon="6.3173">
        <ele>196.86328125</ele>
        <time>2012-03-04T12:42:24Z</time>
      </trkpt>
      <trkpt lat="43.24354" lon="6.31731">
        <ele>196.83984375</ele>
        <time>2012-03-04T12:42:36Z</time>
      </trkpt>
      <trkpt lat="43.24331" lon="6.31736">
        <ele>197.4296875</ele>
        <time>2012-03-04T12:42:49Z</time>
      </trkpt>
      <trkpt lat="43.24295" lon="6.31725">
        <ele>202.1875</ele>
        <time>2012-03-04T12:43:07Z</time>
      </trkpt>
      <trkpt lat="43.24271" lon="6.31718">
        <ele>204.953125</ele>
        <time>2012-03-04T12:43:22Z</time>
      </trkpt>
      <trkpt lat="43.2424" lon="6.31694">
        <ele>205.9921875</ele>
        <time>2012-03-04T12:43:38Z</time>
      </trkpt>
      <trkpt lat="43.24223" lon="6.31677">
        <ele>205.01953125</ele>
        <time>2012-03-04T12:43:43Z</time>
      </trkpt>
      <trkpt lat="43.24202" lon="6.31658">
        <ele>203.796875</ele>
        <time>2012-03-04T12:43:48Z</time>
      </trkpt>
      <trkpt lat="43.24189" lon="6.31642">
        <ele>202.96484375</ele>
        <time>2012-03-04T12:43:51Z</time>
      </trkpt>
      <trkpt lat="43.24169" lon="6.31618">
        <ele>200.76171875</ele>
        <time>2012-03-04T12:43:55Z</time>
      </trkpt>
      <trkpt lat="43.24131" lon="6.31529">
        <ele>198.63671875</ele>
        <time>2012-03-04T12:44:08Z</time>
      </trkpt>
      <trkpt lat="43.24121" lon="6.31461">
        <ele>199.9609375</ele>
        <time>2012-03-04T12:44:20Z</time>
      </trkpt>
      <trkpt lat="43.24118" lon="6.31433">
        <ele>200.83984375</ele>
        <time>2012-03-04T12:44:24Z</time>
      </trkpt>
      <trkpt lat="43.24105" lon="6.314">
        <ele>198.875</ele>
        <time>2012-03-04T12:44:29Z</time>
      </trkpt>
      <trkpt lat="43.24084" lon="6.31376">
        <ele>194.5078125</ele>
        <time>2012-03-04T12:44:33Z</time>
      </trkpt>
      <trkpt lat="43.24055" lon="6.31341">
        <ele>189.80859375</ele>
        <time>2012-03-04T12:44:38Z</time>
      </trkpt>
      <trkpt lat="43.24047" lon="6.31319">
        <ele>188.1484375</ele>
        <time>2012-03-04T12:44:40Z</time>
      </trkpt>
      <trkpt lat="43.24036" lon="6.31301">
        <ele>185.55859375</ele>
        <time>2012-03-04T12:44:42Z</time>
      </trkpt>
      <trkpt lat="43.24036" lon="6.31266">
        <ele>184.296875</ele>
        <time>2012-03-04T12:44:46Z</time>
      </trkpt>
      <trkpt lat="43.2402" lon="6.31237">
        <ele>179.7890625</ele>
        <time>2012-03-04T12:44:50Z</time>
      </trkpt>
      <trkpt lat="43.24004" lon="6.31225">
        <ele>175.8515625</ele>
        <time>2012-03-04T12:44:52Z</time>
      </trkpt>
      <trkpt lat="43.23958" lon="6.31176">
        <ele>167.859375</ele>
        <time>2012-03-04T12:44:58Z</time>
      </trkpt>
      <trkpt lat="43.23953" lon="6.31169">
        <ele>167.40234375</ele>
        <time>2012-03-04T12:44:59Z</time>
      </trkpt>
      <trkpt lat="43.23938" lon="6.31135">
        <ele>165.21875</ele>
        <time>2012-03-04T12:45:05Z</time>
      </trkpt>
      <trkpt lat="43.23925" lon="6.31117">
        <ele>163.46875</ele>
        <time>2012-03-04T12:45:09Z</time>
      </trkpt>
      <trkpt lat="43.23922" lon="6.31112">
        <ele>162.94140625</ele>
        <time>2012-03-04T12:45:10Z</time>
      </trkpt>
      <trkpt lat="43.23913" lon="6.31092">
        <ele>161.54296875</ele>
        <time>2012-03-04T12:45:13Z</time>
      </trkpt>
      <trkpt lat="43.23902" lon="6.31042">
        <ele>159.203125</ele>
        <time>2012-03-04T12:45:20Z</time>
      </trkpt>
      <trkpt lat="43.23864" lon="6.30944">
        <ele>156.16796875</ele>
        <time>2012-03-04T12:45:39Z</time>
      </trkpt>
      <trkpt lat="43.23836" lon="6.30903">
        <ele>155.92578125</ele>
        <time>2012-03-04T12:45:52Z</time>
      </trkpt>
      <trkpt lat="43.23806" lon="6.30861">
        <ele>155.8671875</ele>
        <time>2012-03-04T12:46:06Z</time>
      </trkpt>
      <trkpt lat="43.23775" lon="6.30825">
        <ele>154.74609375</ele>
        <time>2012-03-04T12:46:17Z</time>
      </trkpt>
      <trkpt lat="43.23714" lon="6.30762">
        <ele>154.39453125</ele>
        <time>2012-03-04T12:46:37Z</time>
      </trkpt>
      <trkpt lat="43.23683" lon="6.30712">
        <ele>154.1796875</ele>
        <time>2012-03-04T12:46:51Z</time>
      </trkpt>
      <trkpt lat="43.23665" lon="6.3066">
        <ele>156.4296875</ele>
        <time>2012-03-04T12:47:02Z</time>
      </trkpt>
      <trkpt lat="43.23662" lon="6.3062">
        <ele>160.60546875</ele>
        <time>2012-03-04T12:47:08Z</time>
      </trkpt>
      <trkpt lat="43.23684" lon="6.30516">
        <ele>168.3359375</ele>
        <time>2012-03-04T12:47:26Z</time>
      </trkpt>
      <trkpt lat="43.23715" lon="6.30433">
        <ele>163.80859375</ele>
        <time>2012-03-04T12:47:42Z</time>
      </trkpt>
      <trkpt lat="43.23722" lon="6.30418">
        <ele>162.98046875</ele>
        <time>2012-03-04T12:47:45Z</time>
      </trkpt>
      <trkpt lat="43.23745" lon="6.30361">
        <ele>159.53515625</ele>
        <time>2012-03-04T12:47:54Z</time>
      </trkpt>
      <trkpt lat="43.23769" lon="6.30312">
        <ele>156.23046875</ele>
        <time>2012-03-04T12:48:02Z</time>
      </trkpt>
      <trkpt lat="43.2377" lon="6.30309">
        <ele>155.921875</ele>
        <time>2012-03-04T12:48:05Z</time>
      </trkpt>
      <trkpt lat="43.23753" lon="6.30295">
        <ele>153.28515625</ele>
        <time>2012-03-04T12:48:15Z</time>
      </trkpt>
      <trkpt lat="43.23748" lon="6.30289">
        <ele>152.390625</ele>
        <time>2012-03-04T12:48:17Z</time>
      </trkpt>
      <trkpt lat="43.23726" lon="6.30241">
        <ele>148.01171875</ele>
        <time>2012-03-04T12:48:31Z</time>
      </trkpt>
      <trkpt lat="43.23727" lon="6.30242">
        <ele>148.046875</ele>
        <time>2012-03-04T12:48:42Z</time>
      </trkpt>
    </trkseg>
  </trk>
</gpx>